<?xml version="1.0" encoding="UTF-8" ?>
<gpx version="1.1" xmlns:xsi="http://www.w3.org/2001/XMLSchema-instance" 
    xmlns="http://www.topografix.com/GPX/1/1" 
    xsi:schemaLocation="http://www.topografix.com/GPX/1/1 http://www.topografix.com/GPX/1/1/gpx.xsd" 
    creator="Openrunner - https://www.openrunner.com" >	<trk>
						<name>IS CYCLO RANDO ETANGS 2024 VTT 30km-18635920</name>
						<trkseg>
					<trkpt lat="43.501070" lon="4.994880">
						<ele>33</ele>
						<time>2025-04-28T16:18:30Z</time>
					</trkpt>
					<trkpt lat="43.500790" lon="4.994900">
						<ele>33</ele>
						<time>2025-04-28T16:18:37Z</time>
					</trkpt>
					<trkpt lat="43.500790" lon="4.994010">
						<ele>32</ele>
						<time>2025-04-28T16:18:52Z</time>
					</trkpt>
					<trkpt lat="43.500450" lon="4.994010">
						<ele>33</ele>
						<time>2025-04-28T16:19:00Z</time>
					</trkpt>
					<trkpt lat="43.500460" lon="4.993780">
						<ele>33</ele>
						<time>2025-04-28T16:19:03Z</time>
					</trkpt>
					<trkpt lat="43.499980" lon="4.993760">
						<ele>35</ele>
						<time>2025-04-28T16:19:15Z</time>
					</trkpt>
					<trkpt lat="43.499850" lon="4.993170">
						<ele>34</ele>
						<time>2025-04-28T16:19:25Z</time>
					</trkpt>
					<trkpt lat="43.499760" lon="4.992930">
						<ele>34</ele>
						<time>2025-04-28T16:19:30Z</time>
					</trkpt>
					<trkpt lat="43.499520" lon="4.992800">
						<ele>35</ele>
						<time>2025-04-28T16:19:36Z</time>
					</trkpt>
					<trkpt lat="43.499350" lon="4.992660">
						<ele>36</ele>
						<time>2025-04-28T16:19:40Z</time>
					</trkpt>
					<trkpt lat="43.499270" lon="4.992600">
						<ele>36</ele>
						<time>2025-04-28T16:19:42Z</time>
					</trkpt>
					<trkpt lat="43.499160" lon="4.992600">
						<ele>36</ele>
						<time>2025-04-28T16:19:45Z</time>
					</trkpt>
					<trkpt lat="43.499050" lon="4.992110">
						<ele>35</ele>
						<time>2025-04-28T16:19:54Z</time>
					</trkpt>
					<trkpt lat="43.498890" lon="4.992100">
						<ele>36</ele>
						<time>2025-04-28T16:19:57Z</time>
					</trkpt>
					<trkpt lat="43.498780" lon="4.992110">
						<ele>36</ele>
						<time>2025-04-28T16:20:00Z</time>
					</trkpt>
					<trkpt lat="43.498760" lon="4.992140">
						<ele>36</ele>
						<time>2025-04-28T16:20:01Z</time>
					</trkpt>
					<trkpt lat="43.498830" lon="4.992280">
						<ele>37</ele>
						<time>2025-04-28T16:20:04Z</time>
					</trkpt>
					<trkpt lat="43.498890" lon="4.992520">
						<ele>37</ele>
						<time>2025-04-28T16:20:08Z</time>
					</trkpt>
					<trkpt lat="43.498920" lon="4.992650">
						<ele>38</ele>
						<time>2025-04-28T16:20:10Z</time>
					</trkpt>
					<trkpt lat="43.498820" lon="4.992670">
						<ele>38</ele>
						<time>2025-04-28T16:20:13Z</time>
					</trkpt>
					<trkpt lat="43.498730" lon="4.992910">
						<ele>40</ele>
						<time>2025-04-28T16:20:17Z</time>
					</trkpt>
					<trkpt lat="43.498540" lon="4.993100">
						<ele>42</ele>
						<time>2025-04-28T16:20:23Z</time>
					</trkpt>
					<trkpt lat="43.498220" lon="4.993070">
						<ele>44</ele>
						<time>2025-04-28T16:20:30Z</time>
					</trkpt>
					<trkpt lat="43.497640" lon="4.993140">
						<ele>49</ele>
						<time>2025-04-28T16:20:44Z</time>
					</trkpt>
					<trkpt lat="43.497520" lon="4.993280">
						<ele>51</ele>
						<time>2025-04-28T16:20:47Z</time>
					</trkpt>
					<trkpt lat="43.497510" lon="4.993580">
						<ele>53</ele>
						<time>2025-04-28T16:20:52Z</time>
					</trkpt>
					<trkpt lat="43.497370" lon="4.993920">
						<ele>55</ele>
						<time>2025-04-28T16:20:59Z</time>
					</trkpt>
					<trkpt lat="43.497330" lon="4.994190">
						<ele>56</ele>
						<time>2025-04-28T16:21:04Z</time>
					</trkpt>
					<trkpt lat="43.497180" lon="4.994430">
						<ele>56</ele>
						<time>2025-04-28T16:21:09Z</time>
					</trkpt>
					<trkpt lat="43.497120" lon="4.994940">
						<ele>57</ele>
						<time>2025-04-28T16:21:18Z</time>
					</trkpt>
					<trkpt lat="43.497360" lon="4.995490">
						<ele>56</ele>
						<time>2025-04-28T16:21:29Z</time>
					</trkpt>
					<trkpt lat="43.497430" lon="4.995710">
						<ele>56</ele>
						<time>2025-04-28T16:21:33Z</time>
					</trkpt>
					<trkpt lat="43.497430" lon="4.996000">
						<ele>55</ele>
						<time>2025-04-28T16:21:38Z</time>
					</trkpt>
					<trkpt lat="43.497110" lon="4.996590">
						<ele>55</ele>
						<time>2025-04-28T16:21:50Z</time>
					</trkpt>
					<trkpt lat="43.497000" lon="4.996630">
						<ele>56</ele>
						<time>2025-04-28T16:21:53Z</time>
					</trkpt>
					<trkpt lat="43.496730" lon="4.996640">
						<ele>58</ele>
						<time>2025-04-28T16:21:59Z</time>
					</trkpt>
					<trkpt lat="43.496410" lon="4.996510">
						<ele>59</ele>
						<time>2025-04-28T16:22:07Z</time>
					</trkpt>
					<trkpt lat="43.496280" lon="4.996620">
						<ele>59</ele>
						<time>2025-04-28T16:22:11Z</time>
					</trkpt>
					<trkpt lat="43.495660" lon="4.996500">
						<ele>58</ele>
						<time>2025-04-28T16:22:25Z</time>
					</trkpt>
					<trkpt lat="43.495560" lon="4.996580">
						<ele>58</ele>
						<time>2025-04-28T16:22:28Z</time>
					</trkpt>
					<trkpt lat="43.495380" lon="4.996930">
						<ele>59</ele>
						<time>2025-04-28T16:22:35Z</time>
					</trkpt>
					<trkpt lat="43.495150" lon="4.996920">
						<ele>59</ele>
						<time>2025-04-28T16:22:41Z</time>
					</trkpt>
					<trkpt lat="43.494940" lon="4.996960">
						<ele>60</ele>
						<time>2025-04-28T16:22:45Z</time>
					</trkpt>
					<trkpt lat="43.494760" lon="4.997120">
						<ele>61</ele>
						<time>2025-04-28T16:22:50Z</time>
					</trkpt>
					<trkpt lat="43.494360" lon="4.997590">
						<ele>63</ele>
						<time>2025-04-28T16:23:03Z</time>
					</trkpt>
					<trkpt lat="43.494270" lon="4.997720">
						<ele>63</ele>
						<time>2025-04-28T16:23:06Z</time>
					</trkpt>
					<trkpt lat="43.493800" lon="4.998280">
						<ele>63</ele>
						<time>2025-04-28T16:23:20Z</time>
					</trkpt>
					<trkpt lat="43.493480" lon="4.998340">
						<ele>62</ele>
						<time>2025-04-28T16:23:28Z</time>
					</trkpt>
					<trkpt lat="43.492980" lon="4.998400">
						<ele>57</ele>
						<time>2025-04-28T16:23:40Z</time>
					</trkpt>
					<trkpt lat="43.492650" lon="4.998410">
						<ele>55</ele>
						<time>2025-04-28T16:23:47Z</time>
					</trkpt>
					<trkpt lat="43.492240" lon="4.998620">
						<ele>53</ele>
						<time>2025-04-28T16:23:57Z</time>
					</trkpt>
					<trkpt lat="43.491830" lon="4.998870">
						<ele>55</ele>
						<time>2025-04-28T16:24:08Z</time>
					</trkpt>
					<trkpt lat="43.491810" lon="4.998470">
						<ele>57</ele>
						<time>2025-04-28T16:24:15Z</time>
					</trkpt>
					<trkpt lat="43.491800" lon="4.998190">
						<ele>58</ele>
						<time>2025-04-28T16:24:19Z</time>
					</trkpt>
					<trkpt lat="43.491830" lon="4.997580">
						<ele>56</ele>
						<time>2025-04-28T16:24:30Z</time>
					</trkpt>
					<trkpt lat="43.491810" lon="4.996940">
						<ele>55</ele>
						<time>2025-04-28T16:24:41Z</time>
					</trkpt>
					<trkpt lat="43.491840" lon="4.996340">
						<ele>54</ele>
						<time>2025-04-28T16:24:51Z</time>
					</trkpt>
					<trkpt lat="43.491880" lon="4.995740">
						<ele>54</ele>
						<time>2025-04-28T16:25:01Z</time>
					</trkpt>
					<trkpt lat="43.491950" lon="4.995370">
						<ele>53</ele>
						<time>2025-04-28T16:25:08Z</time>
					</trkpt>
					<trkpt lat="43.491890" lon="4.995310">
						<ele>53</ele>
						<time>2025-04-28T16:25:09Z</time>
					</trkpt>
					<trkpt lat="43.491900" lon="4.995190">
						<ele>53</ele>
						<time>2025-04-28T16:25:11Z</time>
					</trkpt>
					<trkpt lat="43.491850" lon="4.995150">
						<ele>53</ele>
						<time>2025-04-28T16:25:13Z</time>
					</trkpt>
					<trkpt lat="43.491280" lon="4.995250">
						<ele>59</ele>
						<time>2025-04-28T16:25:26Z</time>
					</trkpt>
					<trkpt lat="43.491180" lon="4.995310">
						<ele>60</ele>
						<time>2025-04-28T16:25:29Z</time>
					</trkpt>
					<trkpt lat="43.491040" lon="4.995340">
						<ele>62</ele>
						<time>2025-04-28T16:25:32Z</time>
					</trkpt>
					<trkpt lat="43.490850" lon="4.995580">
						<ele>64</ele>
						<time>2025-04-28T16:25:38Z</time>
					</trkpt>
					<trkpt lat="43.490750" lon="4.995730">
						<ele>65</ele>
						<time>2025-04-28T16:25:41Z</time>
					</trkpt>
					<trkpt lat="43.490310" lon="4.996260">
						<ele>65</ele>
						<time>2025-04-28T16:25:55Z</time>
					</trkpt>
					<trkpt lat="43.490070" lon="4.996620">
						<ele>67</ele>
						<time>2025-04-28T16:26:03Z</time>
					</trkpt>
					<trkpt lat="43.490000" lon="4.996710">
						<ele>67</ele>
						<time>2025-04-28T16:26:06Z</time>
					</trkpt>
					<trkpt lat="43.489960" lon="4.996790">
						<ele>66</ele>
						<time>2025-04-28T16:26:07Z</time>
					</trkpt>
					<trkpt lat="43.489680" lon="4.996990">
						<ele>67</ele>
						<time>2025-04-28T16:26:15Z</time>
					</trkpt>
					<trkpt lat="43.489500" lon="4.997140">
						<ele>67</ele>
						<time>2025-04-28T16:26:20Z</time>
					</trkpt>
					<trkpt lat="43.489340" lon="4.997370">
						<ele>68</ele>
						<time>2025-04-28T16:26:25Z</time>
					</trkpt>
					<trkpt lat="43.489220" lon="4.997480">
						<ele>69</ele>
						<time>2025-04-28T16:26:28Z</time>
					</trkpt>
					<trkpt lat="43.489120" lon="4.997520">
						<ele>70</ele>
						<time>2025-04-28T16:26:31Z</time>
					</trkpt>
					<trkpt lat="43.488870" lon="4.997690">
						<ele>71</ele>
						<time>2025-04-28T16:26:37Z</time>
					</trkpt>
					<trkpt lat="43.488580" lon="4.997770">
						<ele>72</ele>
						<time>2025-04-28T16:26:44Z</time>
					</trkpt>
					<trkpt lat="43.488120" lon="4.998050">
						<ele>72</ele>
						<time>2025-04-28T16:26:56Z</time>
					</trkpt>
					<trkpt lat="43.487950" lon="4.998090">
						<ele>71</ele>
						<time>2025-04-28T16:27:00Z</time>
					</trkpt>
					<trkpt lat="43.487650" lon="4.998280">
						<ele>69</ele>
						<time>2025-04-28T16:27:08Z</time>
					</trkpt>
					<trkpt lat="43.487430" lon="4.998170">
						<ele>69</ele>
						<time>2025-04-28T16:27:13Z</time>
					</trkpt>
					<trkpt lat="43.487070" lon="4.998100">
						<ele>68</ele>
						<time>2025-04-28T16:27:22Z</time>
					</trkpt>
					<trkpt lat="43.486700" lon="4.997940">
						<ele>67</ele>
						<time>2025-04-28T16:27:31Z</time>
					</trkpt>
					<trkpt lat="43.486570" lon="4.997930">
						<ele>67</ele>
						<time>2025-04-28T16:27:34Z</time>
					</trkpt>
					<trkpt lat="43.486400" lon="4.997990">
						<ele>67</ele>
						<time>2025-04-28T16:27:38Z</time>
					</trkpt>
					<trkpt lat="43.486150" lon="4.998210">
						<ele>67</ele>
						<time>2025-04-28T16:27:45Z</time>
					</trkpt>
					<trkpt lat="43.486090" lon="4.998370">
						<ele>68</ele>
						<time>2025-04-28T16:27:48Z</time>
					</trkpt>
					<trkpt lat="43.485940" lon="4.998470">
						<ele>69</ele>
						<time>2025-04-28T16:27:52Z</time>
					</trkpt>
					<trkpt lat="43.485840" lon="4.998690">
						<ele>70</ele>
						<time>2025-04-28T16:27:56Z</time>
					</trkpt>
					<trkpt lat="43.485710" lon="4.998900">
						<ele>70</ele>
						<time>2025-04-28T16:28:01Z</time>
					</trkpt>
					<trkpt lat="43.485610" lon="4.999200">
						<ele>71</ele>
						<time>2025-04-28T16:28:06Z</time>
					</trkpt>
					<trkpt lat="43.485290" lon="4.999490">
						<ele>71</ele>
						<time>2025-04-28T16:28:15Z</time>
					</trkpt>
					<trkpt lat="43.485160" lon="4.999660">
						<ele>71</ele>
						<time>2025-04-28T16:28:19Z</time>
					</trkpt>
					<trkpt lat="43.484970" lon="4.999830">
						<ele>70</ele>
						<time>2025-04-28T16:28:25Z</time>
					</trkpt>
					<trkpt lat="43.484790" lon="4.999820">
						<ele>70</ele>
						<time>2025-04-28T16:28:29Z</time>
					</trkpt>
					<trkpt lat="43.484250" lon="4.999950">
						<ele>69</ele>
						<time>2025-04-28T16:28:42Z</time>
					</trkpt>
					<trkpt lat="43.483890" lon="5.000120">
						<ele>68</ele>
						<time>2025-04-28T16:28:51Z</time>
					</trkpt>
					<trkpt lat="43.483670" lon="5.000290">
						<ele>67</ele>
						<time>2025-04-28T16:28:57Z</time>
					</trkpt>
					<trkpt lat="43.483440" lon="5.000380">
						<ele>66</ele>
						<time>2025-04-28T16:29:02Z</time>
					</trkpt>
					<trkpt lat="43.483050" lon="5.000500">
						<ele>65</ele>
						<time>2025-04-28T16:29:11Z</time>
					</trkpt>
					<trkpt lat="43.482710" lon="5.000590">
						<ele>65</ele>
						<time>2025-04-28T16:29:20Z</time>
					</trkpt>
					<trkpt lat="43.482450" lon="5.000600">
						<ele>64</ele>
						<time>2025-04-28T16:29:26Z</time>
					</trkpt>
					<trkpt lat="43.482250" lon="5.000560">
						<ele>63</ele>
						<time>2025-04-28T16:29:30Z</time>
					</trkpt>
					<trkpt lat="43.482160" lon="5.000570">
						<ele>62</ele>
						<time>2025-04-28T16:29:32Z</time>
					</trkpt>
					<trkpt lat="43.482300" lon="5.000770">
						<ele>62</ele>
						<time>2025-04-28T16:29:37Z</time>
					</trkpt>
					<trkpt lat="43.482490" lon="5.000830">
						<ele>64</ele>
						<time>2025-04-28T16:29:42Z</time>
					</trkpt>
					<trkpt lat="43.482660" lon="5.000820">
						<ele>64</ele>
						<time>2025-04-28T16:29:46Z</time>
					</trkpt>
					<trkpt lat="43.483000" lon="5.000780">
						<ele>64</ele>
						<time>2025-04-28T16:29:54Z</time>
					</trkpt>
					<trkpt lat="43.483310" lon="5.000760">
						<ele>63</ele>
						<time>2025-04-28T16:30:01Z</time>
					</trkpt>
					<trkpt lat="43.483580" lon="5.000750">
						<ele>64</ele>
						<time>2025-04-28T16:30:07Z</time>
					</trkpt>
					<trkpt lat="43.483920" lon="5.000650">
						<ele>66</ele>
						<time>2025-04-28T16:30:15Z</time>
					</trkpt>
					<trkpt lat="43.484300" lon="5.000550">
						<ele>67</ele>
						<time>2025-04-28T16:30:24Z</time>
					</trkpt>
					<trkpt lat="43.484530" lon="5.000430">
						<ele>68</ele>
						<time>2025-04-28T16:30:30Z</time>
					</trkpt>
					<trkpt lat="43.484660" lon="5.000420">
						<ele>68</ele>
						<time>2025-04-28T16:30:33Z</time>
					</trkpt>
					<trkpt lat="43.484810" lon="5.000340">
						<ele>69</ele>
						<time>2025-04-28T16:30:37Z</time>
					</trkpt>
					<trkpt lat="43.485130" lon="5.000270">
						<ele>69</ele>
						<time>2025-04-28T16:30:44Z</time>
					</trkpt>
					<trkpt lat="43.485340" lon="5.000220">
						<ele>69</ele>
						<time>2025-04-28T16:30:49Z</time>
					</trkpt>
					<trkpt lat="43.485570" lon="5.000100">
						<ele>69</ele>
						<time>2025-04-28T16:30:55Z</time>
					</trkpt>
					<trkpt lat="43.485780" lon="5.000070">
						<ele>69</ele>
						<time>2025-04-28T16:31:00Z</time>
					</trkpt>
					<trkpt lat="43.486270" lon="4.999830">
						<ele>68</ele>
						<time>2025-04-28T16:31:12Z</time>
					</trkpt>
					<trkpt lat="43.486700" lon="4.999610">
						<ele>66</ele>
						<time>2025-04-28T16:31:23Z</time>
					</trkpt>
					<trkpt lat="43.486770" lon="4.999480">
						<ele>65</ele>
						<time>2025-04-28T16:31:26Z</time>
					</trkpt>
					<trkpt lat="43.486950" lon="4.999280">
						<ele>66</ele>
						<time>2025-04-28T16:31:31Z</time>
					</trkpt>
					<trkpt lat="43.487360" lon="4.998850">
						<ele>68</ele>
						<time>2025-04-28T16:31:43Z</time>
					</trkpt>
					<trkpt lat="43.487730" lon="4.998780">
						<ele>69</ele>
						<time>2025-04-28T16:31:52Z</time>
					</trkpt>
					<trkpt lat="43.487730" lon="4.998860">
						<ele>69</ele>
						<time>2025-04-28T16:31:53Z</time>
					</trkpt>
					<trkpt lat="43.487720" lon="4.998950">
						<ele>69</ele>
						<time>2025-04-28T16:31:55Z</time>
					</trkpt>
					<trkpt lat="43.487730" lon="4.999060">
						<ele>69</ele>
						<time>2025-04-28T16:31:57Z</time>
					</trkpt>
					<trkpt lat="43.487760" lon="4.999140">
						<ele>69</ele>
						<time>2025-04-28T16:31:58Z</time>
					</trkpt>
					<trkpt lat="43.487750" lon="4.999230">
						<ele>68</ele>
						<time>2025-04-28T16:32:00Z</time>
					</trkpt>
					<trkpt lat="43.487660" lon="4.999310">
						<ele>68</ele>
						<time>2025-04-28T16:32:02Z</time>
					</trkpt>
					<trkpt lat="43.487610" lon="4.999400">
						<ele>67</ele>
						<time>2025-04-28T16:32:04Z</time>
					</trkpt>
					<trkpt lat="43.487550" lon="4.999430">
						<ele>67</ele>
						<time>2025-04-28T16:32:06Z</time>
					</trkpt>
					<trkpt lat="43.487450" lon="4.999560">
						<ele>66</ele>
						<time>2025-04-28T16:32:09Z</time>
					</trkpt>
					<trkpt lat="43.487320" lon="4.999770">
						<ele>65</ele>
						<time>2025-04-28T16:32:13Z</time>
					</trkpt>
					<trkpt lat="43.487230" lon="5.000010">
						<ele>64</ele>
						<time>2025-04-28T16:32:18Z</time>
					</trkpt>
					<trkpt lat="43.487180" lon="5.000090">
						<ele>63</ele>
						<time>2025-04-28T16:32:20Z</time>
					</trkpt>
					<trkpt lat="43.487160" lon="5.000220">
						<ele>62</ele>
						<time>2025-04-28T16:32:22Z</time>
					</trkpt>
					<trkpt lat="43.487040" lon="5.000400">
						<ele>61</ele>
						<time>2025-04-28T16:32:26Z</time>
					</trkpt>
					<trkpt lat="43.486870" lon="5.000710">
						<ele>60</ele>
						<time>2025-04-28T16:32:33Z</time>
					</trkpt>
					<trkpt lat="43.486570" lon="5.001270">
						<ele>57</ele>
						<time>2025-04-28T16:32:45Z</time>
					</trkpt>
					<trkpt lat="43.486360" lon="5.001480">
						<ele>57</ele>
						<time>2025-04-28T16:32:51Z</time>
					</trkpt>
					<trkpt lat="43.486260" lon="5.001530">
						<ele>58</ele>
						<time>2025-04-28T16:32:53Z</time>
					</trkpt>
					<trkpt lat="43.486200" lon="5.001600">
						<ele>58</ele>
						<time>2025-04-28T16:32:55Z</time>
					</trkpt>
					<trkpt lat="43.486190" lon="5.001950">
						<ele>49</ele>
						<time>2025-04-28T16:33:01Z</time>
					</trkpt>
					<trkpt lat="43.486050" lon="5.002040">
						<ele>48</ele>
						<time>2025-04-28T16:33:05Z</time>
					</trkpt>
					<trkpt lat="43.485950" lon="5.002090">
						<ele>48</ele>
						<time>2025-04-28T16:33:07Z</time>
					</trkpt>
					<trkpt lat="43.485920" lon="5.002170">
						<ele>46</ele>
						<time>2025-04-28T16:33:09Z</time>
					</trkpt>
					<trkpt lat="43.485770" lon="5.002240">
						<ele>45</ele>
						<time>2025-04-28T16:33:12Z</time>
					</trkpt>
					<trkpt lat="43.485630" lon="5.002240">
						<ele>45</ele>
						<time>2025-04-28T16:33:16Z</time>
					</trkpt>
					<trkpt lat="43.485550" lon="5.002300">
						<ele>43</ele>
						<time>2025-04-28T16:33:18Z</time>
					</trkpt>
					<trkpt lat="43.485450" lon="5.002300">
						<ele>43</ele>
						<time>2025-04-28T16:33:20Z</time>
					</trkpt>
					<trkpt lat="43.485350" lon="5.002280">
						<ele>43</ele>
						<time>2025-04-28T16:33:22Z</time>
					</trkpt>
					<trkpt lat="43.485240" lon="5.002200">
						<ele>45</ele>
						<time>2025-04-28T16:33:25Z</time>
					</trkpt>
					<trkpt lat="43.484820" lon="5.002300">
						<ele>40</ele>
						<time>2025-04-28T16:33:35Z</time>
					</trkpt>
					<trkpt lat="43.484770" lon="5.002290">
						<ele>40</ele>
						<time>2025-04-28T16:33:36Z</time>
					</trkpt>
					<trkpt lat="43.484690" lon="5.002330">
						<ele>39</ele>
						<time>2025-04-28T16:33:38Z</time>
					</trkpt>
					<trkpt lat="43.484610" lon="5.002270">
						<ele>40</ele>
						<time>2025-04-28T16:33:41Z</time>
					</trkpt>
					<trkpt lat="43.484500" lon="5.002250">
						<ele>40</ele>
						<time>2025-04-28T16:33:43Z</time>
					</trkpt>
					<trkpt lat="43.484340" lon="5.002160">
						<ele>42</ele>
						<time>2025-04-28T16:33:47Z</time>
					</trkpt>
					<trkpt lat="43.484250" lon="5.002130">
						<ele>42</ele>
						<time>2025-04-28T16:33:49Z</time>
					</trkpt>
					<trkpt lat="43.484130" lon="5.002100">
						<ele>43</ele>
						<time>2025-04-28T16:33:52Z</time>
					</trkpt>
					<trkpt lat="43.484010" lon="5.002070">
						<ele>43</ele>
						<time>2025-04-28T16:33:55Z</time>
					</trkpt>
					<trkpt lat="43.483880" lon="5.002020">
						<ele>43</ele>
						<time>2025-04-28T16:33:58Z</time>
					</trkpt>
					<trkpt lat="43.483810" lon="5.001990">
						<ele>44</ele>
						<time>2025-04-28T16:34:00Z</time>
					</trkpt>
					<trkpt lat="43.483710" lon="5.001980">
						<ele>43</ele>
						<time>2025-04-28T16:34:02Z</time>
					</trkpt>
					<trkpt lat="43.483570" lon="5.001860">
						<ele>45</ele>
						<time>2025-04-28T16:34:06Z</time>
					</trkpt>
					<trkpt lat="43.483400" lon="5.001710">
						<ele>48</ele>
						<time>2025-04-28T16:34:11Z</time>
					</trkpt>
					<trkpt lat="43.483310" lon="5.001650">
						<ele>48</ele>
						<time>2025-04-28T16:34:13Z</time>
					</trkpt>
					<trkpt lat="43.483160" lon="5.001570">
						<ele>50</ele>
						<time>2025-04-28T16:34:17Z</time>
					</trkpt>
					<trkpt lat="43.482890" lon="5.001510">
						<ele>51</ele>
						<time>2025-04-28T16:34:23Z</time>
					</trkpt>
					<trkpt lat="43.482550" lon="5.001460">
						<ele>52</ele>
						<time>2025-04-28T16:34:31Z</time>
					</trkpt>
					<trkpt lat="43.482430" lon="5.001480">
						<ele>51</ele>
						<time>2025-04-28T16:34:34Z</time>
					</trkpt>
					<trkpt lat="43.482200" lon="5.001580">
						<ele>47</ele>
						<time>2025-04-28T16:34:40Z</time>
					</trkpt>
					<trkpt lat="43.481910" lon="5.001610">
						<ele>45</ele>
						<time>2025-04-28T16:34:46Z</time>
					</trkpt>
					<trkpt lat="43.481820" lon="5.001570">
						<ele>45</ele>
						<time>2025-04-28T16:34:49Z</time>
					</trkpt>
					<trkpt lat="43.481700" lon="5.001520">
						<ele>45</ele>
						<time>2025-04-28T16:34:52Z</time>
					</trkpt>
					<trkpt lat="43.481460" lon="5.001280">
						<ele>45</ele>
						<time>2025-04-28T16:34:59Z</time>
					</trkpt>
					<trkpt lat="43.481280" lon="5.001040">
						<ele>46</ele>
						<time>2025-04-28T16:35:04Z</time>
					</trkpt>
					<trkpt lat="43.481090" lon="5.000800">
						<ele>47</ele>
						<time>2025-04-28T16:35:10Z</time>
					</trkpt>
					<trkpt lat="43.481050" lon="5.000650">
						<ele>47</ele>
						<time>2025-04-28T16:35:13Z</time>
					</trkpt>
					<trkpt lat="43.480760" lon="5.000340">
						<ele>46</ele>
						<time>2025-04-28T16:35:22Z</time>
					</trkpt>
					<trkpt lat="43.480520" lon="5.000250">
						<ele>43</ele>
						<time>2025-04-28T16:35:27Z</time>
					</trkpt>
					<trkpt lat="43.480350" lon="5.000150">
						<ele>42</ele>
						<time>2025-04-28T16:35:32Z</time>
					</trkpt>
					<trkpt lat="43.480240" lon="5.000060">
						<ele>42</ele>
						<time>2025-04-28T16:35:35Z</time>
					</trkpt>
					<trkpt lat="43.480100" lon="4.999850">
						<ele>41</ele>
						<time>2025-04-28T16:35:40Z</time>
					</trkpt>
					<trkpt lat="43.479980" lon="4.999740">
						<ele>40</ele>
						<time>2025-04-28T16:35:43Z</time>
					</trkpt>
					<trkpt lat="43.479860" lon="4.999730">
						<ele>39</ele>
						<time>2025-04-28T16:35:46Z</time>
					</trkpt>
					<trkpt lat="43.479440" lon="4.999260">
						<ele>39</ele>
						<time>2025-04-28T16:35:58Z</time>
					</trkpt>
					<trkpt lat="43.479150" lon="4.999020">
						<ele>39</ele>
						<time>2025-04-28T16:36:06Z</time>
					</trkpt>
					<trkpt lat="43.478970" lon="4.998940">
						<ele>40</ele>
						<time>2025-04-28T16:36:11Z</time>
					</trkpt>
					<trkpt lat="43.478790" lon="4.998960">
						<ele>39</ele>
						<time>2025-04-28T16:36:15Z</time>
					</trkpt>
					<trkpt lat="43.478630" lon="4.998940">
						<ele>39</ele>
						<time>2025-04-28T16:36:19Z</time>
					</trkpt>
					<trkpt lat="43.478240" lon="4.998760">
						<ele>40</ele>
						<time>2025-04-28T16:36:28Z</time>
					</trkpt>
					<trkpt lat="43.477640" lon="4.998410">
						<ele>42</ele>
						<time>2025-04-28T16:36:44Z</time>
					</trkpt>
					<trkpt lat="43.477290" lon="4.998230">
						<ele>42</ele>
						<time>2025-04-28T16:36:52Z</time>
					</trkpt>
					<trkpt lat="43.476840" lon="4.998100">
						<ele>40</ele>
						<time>2025-04-28T16:37:03Z</time>
					</trkpt>
					<trkpt lat="43.476500" lon="4.998000">
						<ele>39</ele>
						<time>2025-04-28T16:37:11Z</time>
					</trkpt>
					<trkpt lat="43.475850" lon="4.997790">
						<ele>38</ele>
						<time>2025-04-28T16:37:27Z</time>
					</trkpt>
					<trkpt lat="43.476120" lon="4.997400">
						<ele>41</ele>
						<time>2025-04-28T16:37:36Z</time>
					</trkpt>
					<trkpt lat="43.476270" lon="4.997150">
						<ele>41</ele>
						<time>2025-04-28T16:37:41Z</time>
					</trkpt>
					<trkpt lat="43.476260" lon="4.996880">
						<ele>41</ele>
						<time>2025-04-28T16:37:46Z</time>
					</trkpt>
					<trkpt lat="43.476130" lon="4.996680">
						<ele>41</ele>
						<time>2025-04-28T16:37:50Z</time>
					</trkpt>
					<trkpt lat="43.475990" lon="4.996660">
						<ele>41</ele>
						<time>2025-04-28T16:37:54Z</time>
					</trkpt>
					<trkpt lat="43.475750" lon="4.996520">
						<ele>42</ele>
						<time>2025-04-28T16:38:00Z</time>
					</trkpt>
					<trkpt lat="43.475500" lon="4.996550">
						<ele>41</ele>
						<time>2025-04-28T16:38:06Z</time>
					</trkpt>
					<trkpt lat="43.475260" lon="4.996580">
						<ele>41</ele>
						<time>2025-04-28T16:38:11Z</time>
					</trkpt>
					<trkpt lat="43.475160" lon="4.996560">
						<ele>40</ele>
						<time>2025-04-28T16:38:14Z</time>
					</trkpt>
					<trkpt lat="43.474850" lon="4.996820">
						<ele>39</ele>
						<time>2025-04-28T16:38:22Z</time>
					</trkpt>
					<trkpt lat="43.474680" lon="4.996810">
						<ele>38</ele>
						<time>2025-04-28T16:38:26Z</time>
					</trkpt>
					<trkpt lat="43.474480" lon="4.996100">
						<ele>39</ele>
						<time>2025-04-28T16:38:39Z</time>
					</trkpt>
					<trkpt lat="43.473900" lon="4.994850">
						<ele>37</ele>
						<time>2025-04-28T16:39:04Z</time>
					</trkpt>
					<trkpt lat="43.473170" lon="4.993040">
						<ele>34</ele>
						<time>2025-04-28T16:39:39Z</time>
					</trkpt>
					<trkpt lat="43.473010" lon="4.992950">
						<ele>34</ele>
						<time>2025-04-28T16:39:43Z</time>
					</trkpt>
					<trkpt lat="43.472260" lon="4.992900">
						<ele>34</ele>
						<time>2025-04-28T16:40:01Z</time>
					</trkpt>
					<trkpt lat="43.471530" lon="4.991910">
						<ele>33</ele>
						<time>2025-04-28T16:40:25Z</time>
					</trkpt>
					<trkpt lat="43.471480" lon="4.991640">
						<ele>33</ele>
						<time>2025-04-28T16:40:30Z</time>
					</trkpt>
					<trkpt lat="43.471680" lon="4.991370">
						<ele>33</ele>
						<time>2025-04-28T16:40:36Z</time>
					</trkpt>
					<trkpt lat="43.471780" lon="4.991200">
						<ele>32</ele>
						<time>2025-04-28T16:40:40Z</time>
					</trkpt>
					<trkpt lat="43.471780" lon="4.991090">
						<ele>32</ele>
						<time>2025-04-28T16:40:42Z</time>
					</trkpt>
					<trkpt lat="43.471880" lon="4.990990">
						<ele>32</ele>
						<time>2025-04-28T16:40:44Z</time>
					</trkpt>
					<trkpt lat="43.471880" lon="4.990920">
						<ele>32</ele>
						<time>2025-04-28T16:40:46Z</time>
					</trkpt>
					<trkpt lat="43.472010" lon="4.990680">
						<ele>30</ele>
						<time>2025-04-28T16:40:51Z</time>
					</trkpt>
					<trkpt lat="43.472060" lon="4.990600">
						<ele>30</ele>
						<time>2025-04-28T16:40:53Z</time>
					</trkpt>
					<trkpt lat="43.472110" lon="4.990360">
						<ele>28</ele>
						<time>2025-04-28T16:40:57Z</time>
					</trkpt>
					<trkpt lat="43.472180" lon="4.990150">
						<ele>26</ele>
						<time>2025-04-28T16:41:01Z</time>
					</trkpt>
					<trkpt lat="43.472180" lon="4.989980">
						<ele>25</ele>
						<time>2025-04-28T16:41:04Z</time>
					</trkpt>
					<trkpt lat="43.472370" lon="4.989950">
						<ele>25</ele>
						<time>2025-04-28T16:41:08Z</time>
					</trkpt>
					<trkpt lat="43.472450" lon="4.989750">
						<ele>25</ele>
						<time>2025-04-28T16:41:12Z</time>
					</trkpt>
					<trkpt lat="43.472270" lon="4.989700">
						<ele>23</ele>
						<time>2025-04-28T16:41:16Z</time>
					</trkpt>
					<trkpt lat="43.471970" lon="4.989650">
						<ele>21</ele>
						<time>2025-04-28T16:41:23Z</time>
					</trkpt>
					<trkpt lat="43.471870" lon="4.989650">
						<ele>20</ele>
						<time>2025-04-28T16:41:26Z</time>
					</trkpt>
					<trkpt lat="43.471780" lon="4.989710">
						<ele>21</ele>
						<time>2025-04-28T16:41:28Z</time>
					</trkpt>
					<trkpt lat="43.471650" lon="4.989830">
						<ele>21</ele>
						<time>2025-04-28T16:41:32Z</time>
					</trkpt>
					<trkpt lat="43.471520" lon="4.989930">
						<ele>22</ele>
						<time>2025-04-28T16:41:35Z</time>
					</trkpt>
					<trkpt lat="43.471300" lon="4.990070">
						<ele>22</ele>
						<time>2025-04-28T16:41:41Z</time>
					</trkpt>
					<trkpt lat="43.471100" lon="4.990160">
						<ele>22</ele>
						<time>2025-04-28T16:41:46Z</time>
					</trkpt>
					<trkpt lat="43.470920" lon="4.990230">
						<ele>22</ele>
						<time>2025-04-28T16:41:50Z</time>
					</trkpt>
					<trkpt lat="43.470830" lon="4.990320">
						<ele>23</ele>
						<time>2025-04-28T16:41:53Z</time>
					</trkpt>
					<trkpt lat="43.470490" lon="4.990550">
						<ele>21</ele>
						<time>2025-04-28T16:42:01Z</time>
					</trkpt>
					<trkpt lat="43.470390" lon="4.990680">
						<ele>21</ele>
						<time>2025-04-28T16:42:05Z</time>
					</trkpt>
					<trkpt lat="43.470170" lon="4.990940">
						<ele>21</ele>
						<time>2025-04-28T16:42:11Z</time>
					</trkpt>
					<trkpt lat="43.469990" lon="4.991190">
						<ele>19</ele>
						<time>2025-04-28T16:42:17Z</time>
					</trkpt>
					<trkpt lat="43.469850" lon="4.991430">
						<ele>17</ele>
						<time>2025-04-28T16:42:23Z</time>
					</trkpt>
					<trkpt lat="43.469760" lon="4.991650">
						<ele>17</ele>
						<time>2025-04-28T16:42:27Z</time>
					</trkpt>
					<trkpt lat="43.469710" lon="4.992170">
						<ele>17</ele>
						<time>2025-04-28T16:42:36Z</time>
					</trkpt>
					<trkpt lat="43.469760" lon="4.992420">
						<ele>18</ele>
						<time>2025-04-28T16:42:40Z</time>
					</trkpt>
					<trkpt lat="43.469660" lon="4.992720">
						<ele>19</ele>
						<time>2025-04-28T16:42:46Z</time>
					</trkpt>
					<trkpt lat="43.469600" lon="4.992770">
						<ele>19</ele>
						<time>2025-04-28T16:42:47Z</time>
					</trkpt>
					<trkpt lat="43.469470" lon="4.992710">
						<ele>18</ele>
						<time>2025-04-28T16:42:51Z</time>
					</trkpt>
					<trkpt lat="43.469380" lon="4.992740">
						<ele>17</ele>
						<time>2025-04-28T16:42:53Z</time>
					</trkpt>
					<trkpt lat="43.469320" lon="4.992810">
						<ele>17</ele>
						<time>2025-04-28T16:42:55Z</time>
					</trkpt>
					<trkpt lat="43.469150" lon="4.992910">
						<ele>17</ele>
						<time>2025-04-28T16:42:59Z</time>
					</trkpt>
					<trkpt lat="43.469100" lon="4.992990">
						<ele>17</ele>
						<time>2025-04-28T16:43:01Z</time>
					</trkpt>
					<trkpt lat="43.469050" lon="4.993190">
						<ele>17</ele>
						<time>2025-04-28T16:43:04Z</time>
					</trkpt>
					<trkpt lat="43.469070" lon="4.993450">
						<ele>19</ele>
						<time>2025-04-28T16:43:09Z</time>
					</trkpt>
					<trkpt lat="43.469060" lon="4.993780">
						<ele>21</ele>
						<time>2025-04-28T16:43:14Z</time>
					</trkpt>
					<trkpt lat="43.468970" lon="4.993980">
						<ele>22</ele>
						<time>2025-04-28T16:43:18Z</time>
					</trkpt>
					<trkpt lat="43.468850" lon="4.994210">
						<ele>24</ele>
						<time>2025-04-28T16:43:23Z</time>
					</trkpt>
					<trkpt lat="43.468710" lon="4.994410">
						<ele>27</ele>
						<time>2025-04-28T16:43:28Z</time>
					</trkpt>
					<trkpt lat="43.468630" lon="4.994480">
						<ele>28</ele>
						<time>2025-04-28T16:43:30Z</time>
					</trkpt>
					<trkpt lat="43.468590" lon="4.994450">
						<ele>28</ele>
						<time>2025-04-28T16:43:31Z</time>
					</trkpt>
					<trkpt lat="43.468560" lon="4.994390">
						<ele>27</ele>
						<time>2025-04-28T16:43:32Z</time>
					</trkpt>
					<trkpt lat="43.468500" lon="4.994290">
						<ele>25</ele>
						<time>2025-04-28T16:43:35Z</time>
					</trkpt>
					<trkpt lat="43.468400" lon="4.994170">
						<ele>23</ele>
						<time>2025-04-28T16:43:38Z</time>
					</trkpt>
					<trkpt lat="43.468370" lon="4.994120">
						<ele>22</ele>
						<time>2025-04-28T16:43:39Z</time>
					</trkpt>
					<trkpt lat="43.468290" lon="4.994110">
						<ele>22</ele>
						<time>2025-04-28T16:43:41Z</time>
					</trkpt>
					<trkpt lat="43.468260" lon="4.994140">
						<ele>23</ele>
						<time>2025-04-28T16:43:41Z</time>
					</trkpt>
					<trkpt lat="43.468080" lon="4.994130">
						<ele>23</ele>
						<time>2025-04-28T16:43:46Z</time>
					</trkpt>
					<trkpt lat="43.467930" lon="4.994160">
						<ele>24</ele>
						<time>2025-04-28T16:43:49Z</time>
					</trkpt>
					<trkpt lat="43.467790" lon="4.994240">
						<ele>25</ele>
						<time>2025-04-28T16:43:53Z</time>
					</trkpt>
					<trkpt lat="43.467750" lon="4.994270">
						<ele>26</ele>
						<time>2025-04-28T16:43:54Z</time>
					</trkpt>
					<trkpt lat="43.467690" lon="4.994340">
						<ele>27</ele>
						<time>2025-04-28T16:43:56Z</time>
					</trkpt>
					<trkpt lat="43.467650" lon="4.994490">
						<ele>30</ele>
						<time>2025-04-28T16:43:58Z</time>
					</trkpt>
					<trkpt lat="43.467560" lon="4.994590">
						<ele>31</ele>
						<time>2025-04-28T16:44:01Z</time>
					</trkpt>
					<trkpt lat="43.467490" lon="4.994600">
						<ele>32</ele>
						<time>2025-04-28T16:44:03Z</time>
					</trkpt>
					<trkpt lat="43.467410" lon="4.994640">
						<ele>32</ele>
						<time>2025-04-28T16:44:05Z</time>
					</trkpt>
					<trkpt lat="43.467210" lon="4.994670">
						<ele>32</ele>
						<time>2025-04-28T16:44:09Z</time>
					</trkpt>
					<trkpt lat="43.467140" lon="4.994750">
						<ele>34</ele>
						<time>2025-04-28T16:44:12Z</time>
					</trkpt>
					<trkpt lat="43.467040" lon="4.994800">
						<ele>34</ele>
						<time>2025-04-28T16:44:14Z</time>
					</trkpt>
					<trkpt lat="43.466900" lon="4.994730">
						<ele>33</ele>
						<time>2025-04-28T16:44:17Z</time>
					</trkpt>
					<trkpt lat="43.466880" lon="4.994650">
						<ele>31</ele>
						<time>2025-04-28T16:44:19Z</time>
					</trkpt>
					<trkpt lat="43.466780" lon="4.994540">
						<ele>29</ele>
						<time>2025-04-28T16:44:22Z</time>
					</trkpt>
					<trkpt lat="43.466730" lon="4.994490">
						<ele>29</ele>
						<time>2025-04-28T16:44:23Z</time>
					</trkpt>
					<trkpt lat="43.466710" lon="4.994430">
						<ele>28</ele>
						<time>2025-04-28T16:44:24Z</time>
					</trkpt>
					<trkpt lat="43.466600" lon="4.994390">
						<ele>27</ele>
						<time>2025-04-28T16:44:27Z</time>
					</trkpt>
					<trkpt lat="43.466520" lon="4.994340">
						<ele>25</ele>
						<time>2025-04-28T16:44:29Z</time>
					</trkpt>
					<trkpt lat="43.466450" lon="4.994260">
						<ele>24</ele>
						<time>2025-04-28T16:44:31Z</time>
					</trkpt>
					<trkpt lat="43.466320" lon="4.994260">
						<ele>23</ele>
						<time>2025-04-28T16:44:34Z</time>
					</trkpt>
					<trkpt lat="43.466080" lon="4.994340">
						<ele>24</ele>
						<time>2025-04-28T16:44:40Z</time>
					</trkpt>
					<trkpt lat="43.465960" lon="4.994330">
						<ele>24</ele>
						<time>2025-04-28T16:44:43Z</time>
					</trkpt>
					<trkpt lat="43.465830" lon="4.994420">
						<ele>25</ele>
						<time>2025-04-28T16:44:46Z</time>
					</trkpt>
					<trkpt lat="43.465720" lon="4.994480">
						<ele>25</ele>
						<time>2025-04-28T16:44:49Z</time>
					</trkpt>
					<trkpt lat="43.465650" lon="4.994490">
						<ele>25</ele>
						<time>2025-04-28T16:44:51Z</time>
					</trkpt>
					<trkpt lat="43.465170" lon="4.994750">
						<ele>27</ele>
						<time>2025-04-28T16:45:03Z</time>
					</trkpt>
					<trkpt lat="43.465040" lon="4.994770">
						<ele>26</ele>
						<time>2025-04-28T16:45:06Z</time>
					</trkpt>
					<trkpt lat="43.464950" lon="4.994800">
						<ele>27</ele>
						<time>2025-04-28T16:45:08Z</time>
					</trkpt>
					<trkpt lat="43.464840" lon="4.994790">
						<ele>27</ele>
						<time>2025-04-28T16:45:11Z</time>
					</trkpt>
					<trkpt lat="43.464740" lon="4.994820">
						<ele>27</ele>
						<time>2025-04-28T16:45:13Z</time>
					</trkpt>
					<trkpt lat="43.464650" lon="4.994810">
						<ele>27</ele>
						<time>2025-04-28T16:45:15Z</time>
					</trkpt>
					<trkpt lat="43.464540" lon="4.994780">
						<ele>27</ele>
						<time>2025-04-28T16:45:18Z</time>
					</trkpt>
					<trkpt lat="43.464490" lon="4.994750">
						<ele>26</ele>
						<time>2025-04-28T16:45:19Z</time>
					</trkpt>
					<trkpt lat="43.464280" lon="4.994710">
						<ele>26</ele>
						<time>2025-04-28T16:45:24Z</time>
					</trkpt>
					<trkpt lat="43.464250" lon="4.994660">
						<ele>25</ele>
						<time>2025-04-28T16:45:25Z</time>
					</trkpt>
					<trkpt lat="43.464220" lon="4.994640">
						<ele>25</ele>
						<time>2025-04-28T16:45:26Z</time>
					</trkpt>
					<trkpt lat="43.464210" lon="4.994600">
						<ele>24</ele>
						<time>2025-04-28T16:45:26Z</time>
					</trkpt>
					<trkpt lat="43.464170" lon="4.994560">
						<ele>24</ele>
						<time>2025-04-28T16:45:28Z</time>
					</trkpt>
					<trkpt lat="43.464120" lon="4.994470">
						<ele>23</ele>
						<time>2025-04-28T16:45:30Z</time>
					</trkpt>
					<trkpt lat="43.464120" lon="4.994420">
						<ele>22</ele>
						<time>2025-04-28T16:45:30Z</time>
					</trkpt>
					<trkpt lat="43.464020" lon="4.994270">
						<ele>20</ele>
						<time>2025-04-28T16:45:34Z</time>
					</trkpt>
					<trkpt lat="43.463980" lon="4.994230">
						<ele>20</ele>
						<time>2025-04-28T16:45:35Z</time>
					</trkpt>
					<trkpt lat="43.463830" lon="4.994190">
						<ele>21</ele>
						<time>2025-04-28T16:45:39Z</time>
					</trkpt>
					<trkpt lat="43.463780" lon="4.994190">
						<ele>21</ele>
						<time>2025-04-28T16:45:40Z</time>
					</trkpt>
					<trkpt lat="43.463730" lon="4.994170">
						<ele>21</ele>
						<time>2025-04-28T16:45:41Z</time>
					</trkpt>
					<trkpt lat="43.463710" lon="4.994100">
						<ele>20</ele>
						<time>2025-04-28T16:45:42Z</time>
					</trkpt>
					<trkpt lat="43.463620" lon="4.994040">
						<ele>20</ele>
						<time>2025-04-28T16:45:45Z</time>
					</trkpt>
					<trkpt lat="43.463550" lon="4.994040">
						<ele>20</ele>
						<time>2025-04-28T16:45:46Z</time>
					</trkpt>
					<trkpt lat="43.463190" lon="4.993930">
						<ele>20</ele>
						<time>2025-04-28T16:45:55Z</time>
					</trkpt>
					<trkpt lat="43.463140" lon="4.993910">
						<ele>20</ele>
						<time>2025-04-28T16:45:56Z</time>
					</trkpt>
					<trkpt lat="43.463070" lon="4.993850">
						<ele>18</ele>
						<time>2025-04-28T16:45:58Z</time>
					</trkpt>
					<trkpt lat="43.462870" lon="4.993860">
						<ele>19</ele>
						<time>2025-04-28T16:46:03Z</time>
					</trkpt>
					<trkpt lat="43.462730" lon="4.993880">
						<ele>19</ele>
						<time>2025-04-28T16:46:06Z</time>
					</trkpt>
					<trkpt lat="43.462550" lon="4.993930">
						<ele>20</ele>
						<time>2025-04-28T16:46:10Z</time>
					</trkpt>
					<trkpt lat="43.462480" lon="4.993930">
						<ele>20</ele>
						<time>2025-04-28T16:46:12Z</time>
					</trkpt>
					<trkpt lat="43.462400" lon="4.993920">
						<ele>19</ele>
						<time>2025-04-28T16:46:14Z</time>
					</trkpt>
					<trkpt lat="43.462290" lon="4.993930">
						<ele>19</ele>
						<time>2025-04-28T16:46:16Z</time>
					</trkpt>
					<trkpt lat="43.462210" lon="4.993900">
						<ele>18</ele>
						<time>2025-04-28T16:46:18Z</time>
					</trkpt>
					<trkpt lat="43.462200" lon="4.993860">
						<ele>17</ele>
						<time>2025-04-28T16:46:19Z</time>
					</trkpt>
					<trkpt lat="43.462160" lon="4.993820">
						<ele>16</ele>
						<time>2025-04-28T16:46:20Z</time>
					</trkpt>
					<trkpt lat="43.462060" lon="4.993820">
						<ele>15</ele>
						<time>2025-04-28T16:46:22Z</time>
					</trkpt>
					<trkpt lat="43.461970" lon="4.993770">
						<ele>14</ele>
						<time>2025-04-28T16:46:25Z</time>
					</trkpt>
					<trkpt lat="43.461880" lon="4.993690">
						<ele>12</ele>
						<time>2025-04-28T16:46:27Z</time>
					</trkpt>
					<trkpt lat="43.461720" lon="4.993640">
						<ele>11</ele>
						<time>2025-04-28T16:46:31Z</time>
					</trkpt>
					<trkpt lat="43.461630" lon="4.993610">
						<ele>10</ele>
						<time>2025-04-28T16:46:33Z</time>
					</trkpt>
					<trkpt lat="43.461590" lon="4.993620">
						<ele>10</ele>
						<time>2025-04-28T16:46:34Z</time>
					</trkpt>
					<trkpt lat="43.461470" lon="4.993540">
						<ele>9</ele>
						<time>2025-04-28T16:46:37Z</time>
					</trkpt>
					<trkpt lat="43.461430" lon="4.993450">
						<ele>8</ele>
						<time>2025-04-28T16:46:39Z</time>
					</trkpt>
					<trkpt lat="43.461340" lon="4.993440">
						<ele>8</ele>
						<time>2025-04-28T16:46:41Z</time>
					</trkpt>
					<trkpt lat="43.461280" lon="4.993460">
						<ele>8</ele>
						<time>2025-04-28T16:46:43Z</time>
					</trkpt>
					<trkpt lat="43.461220" lon="4.993490">
						<ele>9</ele>
						<time>2025-04-28T16:46:44Z</time>
					</trkpt>
					<trkpt lat="43.461100" lon="4.993500">
						<ele>9</ele>
						<time>2025-04-28T16:46:47Z</time>
					</trkpt>
					<trkpt lat="43.461030" lon="4.993520">
						<ele>9</ele>
						<time>2025-04-28T16:46:49Z</time>
					</trkpt>
					<trkpt lat="43.460920" lon="4.993610">
						<ele>10</ele>
						<time>2025-04-28T16:46:52Z</time>
					</trkpt>
					<trkpt lat="43.460730" lon="4.993680">
						<ele>11</ele>
						<time>2025-04-28T16:46:56Z</time>
					</trkpt>
					<trkpt lat="43.460600" lon="4.993500">
						<ele>9</ele>
						<time>2025-04-28T16:47:00Z</time>
					</trkpt>
					<trkpt lat="43.460570" lon="4.993490">
						<ele>9</ele>
						<time>2025-04-28T16:47:01Z</time>
					</trkpt>
					<trkpt lat="43.460310" lon="4.993530">
						<ele>11</ele>
						<time>2025-04-28T16:47:07Z</time>
					</trkpt>
					<trkpt lat="43.459890" lon="4.993550">
						<ele>13</ele>
						<time>2025-04-28T16:47:17Z</time>
					</trkpt>
					<trkpt lat="43.459670" lon="4.993510">
						<ele>14</ele>
						<time>2025-04-28T16:47:22Z</time>
					</trkpt>
					<trkpt lat="43.459560" lon="4.993490">
						<ele>14</ele>
						<time>2025-04-28T16:47:25Z</time>
					</trkpt>
					<trkpt lat="43.459310" lon="4.993350">
						<ele>12</ele>
						<time>2025-04-28T16:47:31Z</time>
					</trkpt>
					<trkpt lat="43.459250" lon="4.993290">
						<ele>12</ele>
						<time>2025-04-28T16:47:33Z</time>
					</trkpt>
					<trkpt lat="43.458940" lon="4.993380">
						<ele>14</ele>
						<time>2025-04-28T16:47:40Z</time>
					</trkpt>
					<trkpt lat="43.458440" lon="4.993520">
						<ele>16</ele>
						<time>2025-04-28T16:47:52Z</time>
					</trkpt>
					<trkpt lat="43.458210" lon="4.993840">
						<ele>18</ele>
						<time>2025-04-28T16:48:00Z</time>
					</trkpt>
					<trkpt lat="43.458120" lon="4.993960">
						<ele>19</ele>
						<time>2025-04-28T16:48:03Z</time>
					</trkpt>
					<trkpt lat="43.457560" lon="4.994260">
						<ele>15</ele>
						<time>2025-04-28T16:48:17Z</time>
					</trkpt>
					<trkpt lat="43.457430" lon="4.994330">
						<ele>16</ele>
						<time>2025-04-28T16:48:20Z</time>
					</trkpt>
					<trkpt lat="43.456830" lon="4.994120">
						<ele>17</ele>
						<time>2025-04-28T16:48:35Z</time>
					</trkpt>
					<trkpt lat="43.456530" lon="4.994090">
						<ele>18</ele>
						<time>2025-04-28T16:48:42Z</time>
					</trkpt>
					<trkpt lat="43.456200" lon="4.994070">
						<ele>18</ele>
						<time>2025-04-28T16:48:49Z</time>
					</trkpt>
					<trkpt lat="43.456060" lon="4.993910">
						<ele>19</ele>
						<time>2025-04-28T16:48:54Z</time>
					</trkpt>
					<trkpt lat="43.455930" lon="4.993860">
						<ele>20</ele>
						<time>2025-04-28T16:48:57Z</time>
					</trkpt>
					<trkpt lat="43.455860" lon="4.993860">
						<ele>20</ele>
						<time>2025-04-28T16:48:58Z</time>
					</trkpt>
					<trkpt lat="43.455710" lon="4.994040">
						<ele>17</ele>
						<time>2025-04-28T16:49:03Z</time>
					</trkpt>
					<trkpt lat="43.455580" lon="4.994250">
						<ele>15</ele>
						<time>2025-04-28T16:49:08Z</time>
					</trkpt>
					<trkpt lat="43.454850" lon="4.994920">
						<ele>9</ele>
						<time>2025-04-28T16:49:28Z</time>
					</trkpt>
					<trkpt lat="43.454100" lon="4.995640">
						<ele>7</ele>
						<time>2025-04-28T16:49:49Z</time>
					</trkpt>
					<trkpt lat="43.453740" lon="4.995950">
						<ele>6</ele>
						<time>2025-04-28T16:49:59Z</time>
					</trkpt>
					<trkpt lat="43.453260" lon="4.996380">
						<ele>4</ele>
						<time>2025-04-28T16:50:13Z</time>
					</trkpt>
					<trkpt lat="43.452900" lon="4.996690">
						<ele>3</ele>
						<time>2025-04-28T16:50:23Z</time>
					</trkpt>
					<trkpt lat="43.452580" lon="4.996980">
						<ele>4</ele>
						<time>2025-04-28T16:50:32Z</time>
					</trkpt>
					<trkpt lat="43.452330" lon="4.997340">
						<ele>3</ele>
						<time>2025-04-28T16:50:40Z</time>
					</trkpt>
					<trkpt lat="43.452040" lon="4.998110">
						<ele>1</ele>
						<time>2025-04-28T16:50:55Z</time>
					</trkpt>
					<trkpt lat="43.451890" lon="4.998330">
						<ele>0</ele>
						<time>2025-04-28T16:51:00Z</time>
					</trkpt>
					<trkpt lat="43.451800" lon="4.998760">
						<ele>0</ele>
						<time>2025-04-28T16:51:07Z</time>
					</trkpt>
					<trkpt lat="43.451480" lon="4.999260">
						<ele>-1</ele>
						<time>2025-04-28T16:51:19Z</time>
					</trkpt>
					<trkpt lat="43.451200" lon="4.999680">
						<ele>0</ele>
						<time>2025-04-28T16:51:28Z</time>
					</trkpt>
					<trkpt lat="43.451140" lon="4.999990">
						<ele>1</ele>
						<time>2025-04-28T16:51:34Z</time>
					</trkpt>
					<trkpt lat="43.451060" lon="5.000130">
						<ele>2</ele>
						<time>2025-04-28T16:51:37Z</time>
					</trkpt>
					<trkpt lat="43.450810" lon="5.000320">
						<ele>2</ele>
						<time>2025-04-28T16:51:44Z</time>
					</trkpt>
					<trkpt lat="43.450630" lon="5.000530">
						<ele>3</ele>
						<time>2025-04-28T16:51:49Z</time>
					</trkpt>
					<trkpt lat="43.450460" lon="5.000600">
						<ele>2</ele>
						<time>2025-04-28T16:51:53Z</time>
					</trkpt>
					<trkpt lat="43.450290" lon="5.000790">
						<ele>2</ele>
						<time>2025-04-28T16:51:58Z</time>
					</trkpt>
					<trkpt lat="43.450170" lon="5.000930">
						<ele>2</ele>
						<time>2025-04-28T16:52:02Z</time>
					</trkpt>
					<trkpt lat="43.449650" lon="5.001320">
						<ele>1</ele>
						<time>2025-04-28T16:52:16Z</time>
					</trkpt>
					<trkpt lat="43.449450" lon="5.001610">
						<ele>1</ele>
						<time>2025-04-28T16:52:23Z</time>
					</trkpt>
					<trkpt lat="43.449260" lon="5.001910">
						<ele>1</ele>
						<time>2025-04-28T16:52:29Z</time>
					</trkpt>
					<trkpt lat="43.449140" lon="5.002220">
						<ele>1</ele>
						<time>2025-04-28T16:52:35Z</time>
					</trkpt>
					<trkpt lat="43.449030" lon="5.002560">
						<ele>3</ele>
						<time>2025-04-28T16:52:42Z</time>
					</trkpt>
					<trkpt lat="43.449010" lon="5.002960">
						<ele>5</ele>
						<time>2025-04-28T16:52:48Z</time>
					</trkpt>
					<trkpt lat="43.448920" lon="5.003180">
						<ele>5</ele>
						<time>2025-04-28T16:52:53Z</time>
					</trkpt>
					<trkpt lat="43.448670" lon="5.003500">
						<ele>2</ele>
						<time>2025-04-28T16:53:01Z</time>
					</trkpt>
					<trkpt lat="43.448570" lon="5.003820">
						<ele>1</ele>
						<time>2025-04-28T16:53:07Z</time>
					</trkpt>
					<trkpt lat="43.448540" lon="5.004290">
						<ele>2</ele>
						<time>2025-04-28T16:53:15Z</time>
					</trkpt>
					<trkpt lat="43.448460" lon="5.004510">
						<ele>2</ele>
						<time>2025-04-28T16:53:19Z</time>
					</trkpt>
					<trkpt lat="43.448340" lon="5.004630">
						<ele>2</ele>
						<time>2025-04-28T16:53:22Z</time>
					</trkpt>
					<trkpt lat="43.447710" lon="5.004760">
						<ele>0</ele>
						<time>2025-04-28T16:53:37Z</time>
					</trkpt>
					<trkpt lat="43.447290" lon="5.005110">
						<ele>-0</ele>
						<time>2025-04-28T16:53:49Z</time>
					</trkpt>
					<trkpt lat="43.446750" lon="5.005970">
						<ele>-1</ele>
						<time>2025-04-28T16:54:08Z</time>
					</trkpt>
					<trkpt lat="43.446440" lon="5.006510">
						<ele>2</ele>
						<time>2025-04-28T16:54:20Z</time>
					</trkpt>
					<trkpt lat="43.446150" lon="5.006820">
						<ele>2</ele>
						<time>2025-04-28T16:54:28Z</time>
					</trkpt>
					<trkpt lat="43.445910" lon="5.006980">
						<ele>2</ele>
						<time>2025-04-28T16:54:34Z</time>
					</trkpt>
					<trkpt lat="43.445720" lon="5.007320">
						<ele>3</ele>
						<time>2025-04-28T16:54:42Z</time>
					</trkpt>
					<trkpt lat="43.445560" lon="5.007390">
						<ele>3</ele>
						<time>2025-04-28T16:54:45Z</time>
					</trkpt>
					<trkpt lat="43.445140" lon="5.007630">
						<ele>2</ele>
						<time>2025-04-28T16:54:56Z</time>
					</trkpt>
					<trkpt lat="43.444730" lon="5.007830">
						<ele>2</ele>
						<time>2025-04-28T16:55:06Z</time>
					</trkpt>
					<trkpt lat="43.444690" lon="5.007890">
						<ele>3</ele>
						<time>2025-04-28T16:55:08Z</time>
					</trkpt>
					<trkpt lat="43.444710" lon="5.007930">
						<ele>3</ele>
						<time>2025-04-28T16:55:08Z</time>
					</trkpt>
					<trkpt lat="43.444700" lon="5.008010">
						<ele>4</ele>
						<time>2025-04-28T16:55:10Z</time>
					</trkpt>
					<trkpt lat="43.444630" lon="5.008020">
						<ele>4</ele>
						<time>2025-04-28T16:55:11Z</time>
					</trkpt>
					<trkpt lat="43.443880" lon="5.007680">
						<ele>-1</ele>
						<time>2025-04-28T16:55:30Z</time>
					</trkpt>
					<trkpt lat="43.443670" lon="5.007520">
						<ele>-2</ele>
						<time>2025-04-28T16:55:36Z</time>
					</trkpt>
					<trkpt lat="43.443500" lon="5.007430">
						<ele>-3</ele>
						<time>2025-04-28T16:55:40Z</time>
					</trkpt>
					<trkpt lat="43.443310" lon="5.007360">
						<ele>-3</ele>
						<time>2025-04-28T16:55:44Z</time>
					</trkpt>
					<trkpt lat="43.443120" lon="5.007300">
						<ele>-3</ele>
						<time>2025-04-28T16:55:49Z</time>
					</trkpt>
					<trkpt lat="43.442910" lon="5.007230">
						<ele>-3</ele>
						<time>2025-04-28T16:55:54Z</time>
					</trkpt>
					<trkpt lat="43.442720" lon="5.007110">
						<ele>-3</ele>
						<time>2025-04-28T16:55:59Z</time>
					</trkpt>
					<trkpt lat="43.442560" lon="5.006970">
						<ele>-3</ele>
						<time>2025-04-28T16:56:03Z</time>
					</trkpt>
					<trkpt lat="43.442320" lon="5.006660">
						<ele>-3</ele>
						<time>2025-04-28T16:56:11Z</time>
					</trkpt>
					<trkpt lat="43.442220" lon="5.006520">
						<ele>-3</ele>
						<time>2025-04-28T16:56:14Z</time>
					</trkpt>
					<trkpt lat="43.442110" lon="5.006260">
						<ele>-2</ele>
						<time>2025-04-28T16:56:19Z</time>
					</trkpt>
					<trkpt lat="43.441930" lon="5.005960">
						<ele>-1</ele>
						<time>2025-04-28T16:56:26Z</time>
					</trkpt>
					<trkpt lat="43.441320" lon="5.005040">
						<ele>-2</ele>
						<time>2025-04-28T16:56:47Z</time>
					</trkpt>
					<trkpt lat="43.441070" lon="5.004630">
						<ele>-2</ele>
						<time>2025-04-28T16:56:56Z</time>
					</trkpt>
					<trkpt lat="43.440880" lon="5.004410">
						<ele>-1</ele>
						<time>2025-04-28T16:57:02Z</time>
					</trkpt>
					<trkpt lat="43.440710" lon="5.004150">
						<ele>-1</ele>
						<time>2025-04-28T16:57:08Z</time>
					</trkpt>
					<trkpt lat="43.440490" lon="5.003780">
						<ele>-2</ele>
						<time>2025-04-28T16:57:16Z</time>
					</trkpt>
					<trkpt lat="43.440410" lon="5.003550">
						<ele>-2</ele>
						<time>2025-04-28T16:57:20Z</time>
					</trkpt>
					<trkpt lat="43.440300" lon="5.003270">
						<ele>-3</ele>
						<time>2025-04-28T16:57:26Z</time>
					</trkpt>
					<trkpt lat="43.440110" lon="5.002970">
						<ele>-2</ele>
						<time>2025-04-28T16:57:33Z</time>
					</trkpt>
					<trkpt lat="43.439920" lon="5.002650">
						<ele>-2</ele>
						<time>2025-04-28T16:57:40Z</time>
					</trkpt>
					<trkpt lat="43.439830" lon="5.002480">
						<ele>-2</ele>
						<time>2025-04-28T16:57:43Z</time>
					</trkpt>
					<trkpt lat="43.439650" lon="5.002300">
						<ele>-1</ele>
						<time>2025-04-28T16:57:48Z</time>
					</trkpt>
					<trkpt lat="43.439540" lon="5.002140">
						<ele>-1</ele>
						<time>2025-04-28T16:57:52Z</time>
					</trkpt>
					<trkpt lat="43.439420" lon="5.001800">
						<ele>-0</ele>
						<time>2025-04-28T16:57:58Z</time>
					</trkpt>
					<trkpt lat="43.439180" lon="5.001120">
						<ele>-0</ele>
						<time>2025-04-28T16:58:11Z</time>
					</trkpt>
					<trkpt lat="43.439050" lon="5.000600">
						<ele>-1</ele>
						<time>2025-04-28T16:58:21Z</time>
					</trkpt>
					<trkpt lat="43.438990" lon="5.000100">
						<ele>-1</ele>
						<time>2025-04-28T16:58:29Z</time>
					</trkpt>
					<trkpt lat="43.438920" lon="4.999780">
						<ele>-0</ele>
						<time>2025-04-28T16:58:35Z</time>
					</trkpt>
					<trkpt lat="43.438840" lon="4.999460">
						<ele>0</ele>
						<time>2025-04-28T16:58:41Z</time>
					</trkpt>
					<trkpt lat="43.438710" lon="4.998960">
						<ele>1</ele>
						<time>2025-04-28T16:58:50Z</time>
					</trkpt>
					<trkpt lat="43.438560" lon="4.998570">
						<ele>1</ele>
						<time>2025-04-28T16:58:57Z</time>
					</trkpt>
					<trkpt lat="43.438260" lon="4.997910">
						<ele>1</ele>
						<time>2025-04-28T16:59:10Z</time>
					</trkpt>
					<trkpt lat="43.438020" lon="4.997460">
						<ele>2</ele>
						<time>2025-04-28T16:59:20Z</time>
					</trkpt>
					<trkpt lat="43.437760" lon="4.997040">
						<ele>5</ele>
						<time>2025-04-28T16:59:29Z</time>
					</trkpt>
					<trkpt lat="43.437510" lon="4.996660">
						<ele>8</ele>
						<time>2025-04-28T16:59:38Z</time>
					</trkpt>
					<trkpt lat="43.437470" lon="4.996310">
						<ele>11</ele>
						<time>2025-04-28T16:59:44Z</time>
					</trkpt>
					<trkpt lat="43.437330" lon="4.996240">
						<ele>14</ele>
						<time>2025-04-28T16:59:47Z</time>
					</trkpt>
					<trkpt lat="43.437130" lon="4.995960">
						<ele>18</ele>
						<time>2025-04-28T16:59:54Z</time>
					</trkpt>
					<trkpt lat="43.436970" lon="4.995590">
						<ele>20</ele>
						<time>2025-04-28T17:00:01Z</time>
					</trkpt>
					<trkpt lat="43.436790" lon="4.995240">
						<ele>21</ele>
						<time>2025-04-28T17:00:09Z</time>
					</trkpt>
					<trkpt lat="43.436750" lon="4.995100">
						<ele>21</ele>
						<time>2025-04-28T17:00:11Z</time>
					</trkpt>
					<trkpt lat="43.436680" lon="4.994780">
						<ele>22</ele>
						<time>2025-04-28T17:00:17Z</time>
					</trkpt>
					<trkpt lat="43.436560" lon="4.994570">
						<ele>24</ele>
						<time>2025-04-28T17:00:21Z</time>
					</trkpt>
					<trkpt lat="43.436310" lon="4.994400">
						<ele>29</ele>
						<time>2025-04-28T17:00:28Z</time>
					</trkpt>
					<trkpt lat="43.436240" lon="4.994220">
						<ele>31</ele>
						<time>2025-04-28T17:00:31Z</time>
					</trkpt>
					<trkpt lat="43.436140" lon="4.993970">
						<ele>33</ele>
						<time>2025-04-28T17:00:36Z</time>
					</trkpt>
					<trkpt lat="43.436000" lon="4.993730">
						<ele>36</ele>
						<time>2025-04-28T17:00:41Z</time>
					</trkpt>
					<trkpt lat="43.435910" lon="4.993380">
						<ele>36</ele>
						<time>2025-04-28T17:00:48Z</time>
					</trkpt>
					<trkpt lat="43.435830" lon="4.993100">
						<ele>39</ele>
						<time>2025-04-28T17:00:53Z</time>
					</trkpt>
					<trkpt lat="43.435760" lon="4.992970">
						<ele>41</ele>
						<time>2025-04-28T17:00:55Z</time>
					</trkpt>
					<trkpt lat="43.435800" lon="4.992750">
						<ele>42</ele>
						<time>2025-04-28T17:00:59Z</time>
					</trkpt>
					<trkpt lat="43.435800" lon="4.992530">
						<ele>43</ele>
						<time>2025-04-28T17:01:03Z</time>
					</trkpt>
					<trkpt lat="43.435840" lon="4.992380">
						<ele>44</ele>
						<time>2025-04-28T17:01:06Z</time>
					</trkpt>
					<trkpt lat="43.435920" lon="4.992210">
						<ele>45</ele>
						<time>2025-04-28T17:01:09Z</time>
					</trkpt>
					<trkpt lat="43.435930" lon="4.992040">
						<ele>47</ele>
						<time>2025-04-28T17:01:12Z</time>
					</trkpt>
					<trkpt lat="43.435960" lon="4.991970">
						<ele>47</ele>
						<time>2025-04-28T17:01:13Z</time>
					</trkpt>
					<trkpt lat="43.435660" lon="4.992050">
						<ele>49</ele>
						<time>2025-04-28T17:01:21Z</time>
					</trkpt>
					<trkpt lat="43.435630" lon="4.992120">
						<ele>49</ele>
						<time>2025-04-28T17:01:22Z</time>
					</trkpt>
					<trkpt lat="43.436210" lon="4.990630">
						<ele>51</ele>
						<time>2025-04-28T17:01:51Z</time>
					</trkpt>
					<trkpt lat="43.436160" lon="4.990350">
						<ele>51</ele>
						<time>2025-04-28T17:01:56Z</time>
					</trkpt>
					<trkpt lat="43.436050" lon="4.990150">
						<ele>51</ele>
						<time>2025-04-28T17:02:00Z</time>
					</trkpt>
					<trkpt lat="43.435960" lon="4.990150">
						<ele>52</ele>
						<time>2025-04-28T17:02:02Z</time>
					</trkpt>
					<trkpt lat="43.435690" lon="4.989320">
						<ele>49</ele>
						<time>2025-04-28T17:02:17Z</time>
					</trkpt>
					<trkpt lat="43.435550" lon="4.988870">
						<ele>47</ele>
						<time>2025-04-28T17:02:26Z</time>
					</trkpt>
					<trkpt lat="43.435510" lon="4.987930">
						<ele>47</ele>
						<time>2025-04-28T17:02:42Z</time>
					</trkpt>
					<trkpt lat="43.435650" lon="4.986740">
						<ele>47</ele>
						<time>2025-04-28T17:03:02Z</time>
					</trkpt>
					<trkpt lat="43.435810" lon="4.986300">
						<ele>49</ele>
						<time>2025-04-28T17:03:10Z</time>
					</trkpt>
					<trkpt lat="43.435970" lon="4.986110">
						<ele>50</ele>
						<time>2025-04-28T17:03:15Z</time>
					</trkpt>
					<trkpt lat="43.436060" lon="4.986010">
						<ele>51</ele>
						<time>2025-04-28T17:03:18Z</time>
					</trkpt>
					<trkpt lat="43.436050" lon="4.985600">
						<ele>53</ele>
						<time>2025-04-28T17:03:25Z</time>
					</trkpt>
					<trkpt lat="43.435850" lon="4.985160">
						<ele>55</ele>
						<time>2025-04-28T17:03:34Z</time>
					</trkpt>
					<trkpt lat="43.435920" lon="4.984870">
						<ele>57</ele>
						<time>2025-04-28T17:03:39Z</time>
					</trkpt>
					<trkpt lat="43.435780" lon="4.984510">
						<ele>58</ele>
						<time>2025-04-28T17:03:46Z</time>
					</trkpt>
					<trkpt lat="43.434850" lon="4.983950">
						<ele>57</ele>
						<time>2025-04-28T17:04:10Z</time>
					</trkpt>
					<trkpt lat="43.434080" lon="4.983930">
						<ele>56</ele>
						<time>2025-04-28T17:04:28Z</time>
					</trkpt>
					<trkpt lat="43.433720" lon="4.983770">
						<ele>53</ele>
						<time>2025-04-28T17:04:36Z</time>
					</trkpt>
					<trkpt lat="43.433510" lon="4.983440">
						<ele>51</ele>
						<time>2025-04-28T17:04:44Z</time>
					</trkpt>
					<trkpt lat="43.433570" lon="4.983160">
						<ele>47</ele>
						<time>2025-04-28T17:04:49Z</time>
					</trkpt>
					<trkpt lat="43.434300" lon="4.982580">
						<ele>45</ele>
						<time>2025-04-28T17:05:08Z</time>
					</trkpt>
					<trkpt lat="43.434570" lon="4.982260">
						<ele>42</ele>
						<time>2025-04-28T17:05:17Z</time>
					</trkpt>
					<trkpt lat="43.434780" lon="4.981080">
						<ele>24</ele>
						<time>2025-04-28T17:05:37Z</time>
					</trkpt>
					<trkpt lat="43.435450" lon="4.980500">
						<ele>24</ele>
						<time>2025-04-28T17:05:56Z</time>
					</trkpt>
					<trkpt lat="43.435900" lon="4.980250">
						<ele>26</ele>
						<time>2025-04-28T17:06:07Z</time>
					</trkpt>
					<trkpt lat="43.436750" lon="4.979330">
						<ele>20</ele>
						<time>2025-04-28T17:06:32Z</time>
					</trkpt>
					<trkpt lat="43.437600" lon="4.978790">
						<ele>18</ele>
						<time>2025-04-28T17:06:54Z</time>
					</trkpt>
					<trkpt lat="43.438270" lon="4.978710">
						<ele>22</ele>
						<time>2025-04-28T17:07:10Z</time>
					</trkpt>
					<trkpt lat="43.438880" lon="4.978660">
						<ele>24</ele>
						<time>2025-04-28T17:07:24Z</time>
					</trkpt>
					<trkpt lat="43.439780" lon="4.978570">
						<ele>26</ele>
						<time>2025-04-28T17:07:45Z</time>
					</trkpt>
					<trkpt lat="43.440550" lon="4.978420">
						<ele>19</ele>
						<time>2025-04-28T17:08:04Z</time>
					</trkpt>
					<trkpt lat="43.441420" lon="4.978600">
						<ele>23</ele>
						<time>2025-04-28T17:08:24Z</time>
					</trkpt>
					<trkpt lat="43.442200" lon="4.978650">
						<ele>24</ele>
						<time>2025-04-28T17:08:42Z</time>
					</trkpt>
					<trkpt lat="43.442420" lon="4.978700">
						<ele>27</ele>
						<time>2025-04-28T17:08:47Z</time>
					</trkpt>
					<trkpt lat="43.442820" lon="4.978650">
						<ele>24</ele>
						<time>2025-04-28T17:08:57Z</time>
					</trkpt>
					<trkpt lat="43.443130" lon="4.978530">
						<ele>19</ele>
						<time>2025-04-28T17:09:04Z</time>
					</trkpt>
					<trkpt lat="43.443610" lon="4.978520">
						<ele>16</ele>
						<time>2025-04-28T17:09:16Z</time>
					</trkpt>
					<trkpt lat="43.444200" lon="4.978880">
						<ele>17</ele>
						<time>2025-04-28T17:09:31Z</time>
					</trkpt>
					<trkpt lat="43.444360" lon="4.979360">
						<ele>21</ele>
						<time>2025-04-28T17:09:40Z</time>
					</trkpt>
					<trkpt lat="43.444360" lon="4.979860">
						<ele>26</ele>
						<time>2025-04-28T17:09:48Z</time>
					</trkpt>
					<trkpt lat="43.444220" lon="4.980530">
						<ele>26</ele>
						<time>2025-04-28T17:10:00Z</time>
					</trkpt>
					<trkpt lat="43.443940" lon="4.981260">
						<ele>27</ele>
						<time>2025-04-28T17:10:14Z</time>
					</trkpt>
					<trkpt lat="43.443720" lon="4.982080">
						<ele>32</ele>
						<time>2025-04-28T17:10:29Z</time>
					</trkpt>
					<trkpt lat="43.443620" lon="4.982170">
						<ele>34</ele>
						<time>2025-04-28T17:10:32Z</time>
					</trkpt>
					<trkpt lat="43.443340" lon="4.982220">
						<ele>38</ele>
						<time>2025-04-28T17:10:38Z</time>
					</trkpt>
					<trkpt lat="43.442900" lon="4.982810">
						<ele>46</ele>
						<time>2025-04-28T17:10:52Z</time>
					</trkpt>
					<trkpt lat="43.442810" lon="4.983090">
						<ele>48</ele>
						<time>2025-04-28T17:10:58Z</time>
					</trkpt>
					<trkpt lat="43.442910" lon="4.983280">
						<ele>48</ele>
						<time>2025-04-28T17:11:02Z</time>
					</trkpt>
					<trkpt lat="43.443040" lon="4.983360">
						<ele>48</ele>
						<time>2025-04-28T17:11:05Z</time>
					</trkpt>
					<trkpt lat="43.443260" lon="4.983420">
						<ele>46</ele>
						<time>2025-04-28T17:11:10Z</time>
					</trkpt>
					<trkpt lat="43.443430" lon="4.983410">
						<ele>46</ele>
						<time>2025-04-28T17:11:14Z</time>
					</trkpt>
					<trkpt lat="43.443600" lon="4.983440">
						<ele>47</ele>
						<time>2025-04-28T17:11:18Z</time>
					</trkpt>
					<trkpt lat="43.443660" lon="4.983450">
						<ele>48</ele>
						<time>2025-04-28T17:11:20Z</time>
					</trkpt>
					<trkpt lat="43.443720" lon="4.983520">
						<ele>48</ele>
						<time>2025-04-28T17:11:21Z</time>
					</trkpt>
					<trkpt lat="43.443810" lon="4.983770">
						<ele>50</ele>
						<time>2025-04-28T17:11:26Z</time>
					</trkpt>
					<trkpt lat="43.443890" lon="4.984180">
						<ele>52</ele>
						<time>2025-04-28T17:11:33Z</time>
					</trkpt>
					<trkpt lat="43.444120" lon="4.984570">
						<ele>51</ele>
						<time>2025-04-28T17:11:42Z</time>
					</trkpt>
					<trkpt lat="43.444210" lon="4.984550">
						<ele>50</ele>
						<time>2025-04-28T17:11:44Z</time>
					</trkpt>
					<trkpt lat="43.444510" lon="4.984460">
						<ele>49</ele>
						<time>2025-04-28T17:11:51Z</time>
					</trkpt>
					<trkpt lat="43.444780" lon="4.984410">
						<ele>49</ele>
						<time>2025-04-28T17:11:58Z</time>
					</trkpt>
					<trkpt lat="43.445030" lon="4.984380">
						<ele>49</ele>
						<time>2025-04-28T17:12:03Z</time>
					</trkpt>
					<trkpt lat="43.445210" lon="4.984590">
						<ele>47</ele>
						<time>2025-04-28T17:12:09Z</time>
					</trkpt>
					<trkpt lat="43.445380" lon="4.984640">
						<ele>48</ele>
						<time>2025-04-28T17:12:13Z</time>
					</trkpt>
					<trkpt lat="43.445570" lon="4.984630">
						<ele>49</ele>
						<time>2025-04-28T17:12:17Z</time>
					</trkpt>
					<trkpt lat="43.445860" lon="4.984460">
						<ele>52</ele>
						<time>2025-04-28T17:12:25Z</time>
					</trkpt>
					<trkpt lat="43.445940" lon="4.984450">
						<ele>54</ele>
						<time>2025-04-28T17:12:27Z</time>
					</trkpt>
					<trkpt lat="43.446130" lon="4.984510">
						<ele>55</ele>
						<time>2025-04-28T17:12:31Z</time>
					</trkpt>
					<trkpt lat="43.446310" lon="4.984790">
						<ele>56</ele>
						<time>2025-04-28T17:12:38Z</time>
					</trkpt>
					<trkpt lat="43.446430" lon="4.984770">
						<ele>58</ele>
						<time>2025-04-28T17:12:40Z</time>
					</trkpt>
					<trkpt lat="43.446550" lon="4.985050">
						<ele>58</ele>
						<time>2025-04-28T17:12:46Z</time>
					</trkpt>
					<trkpt lat="43.446530" lon="4.985170">
						<ele>57</ele>
						<time>2025-04-28T17:12:48Z</time>
					</trkpt>
					<trkpt lat="43.446550" lon="4.985410">
						<ele>56</ele>
						<time>2025-04-28T17:12:52Z</time>
					</trkpt>
					<trkpt lat="43.446510" lon="4.985600">
						<ele>54</ele>
						<time>2025-04-28T17:12:55Z</time>
					</trkpt>
					<trkpt lat="43.446640" lon="4.986030">
						<ele>51</ele>
						<time>2025-04-28T17:13:03Z</time>
					</trkpt>
					<trkpt lat="43.446720" lon="4.986130">
						<ele>51</ele>
						<time>2025-04-28T17:13:06Z</time>
					</trkpt>
					<trkpt lat="43.446760" lon="4.986240">
						<ele>49</ele>
						<time>2025-04-28T17:13:08Z</time>
					</trkpt>
					<trkpt lat="43.446880" lon="4.986290">
						<ele>49</ele>
						<time>2025-04-28T17:13:11Z</time>
					</trkpt>
					<trkpt lat="43.447080" lon="4.986440">
						<ele>50</ele>
						<time>2025-04-28T17:13:16Z</time>
					</trkpt>
					<trkpt lat="43.447260" lon="4.986610">
						<ele>50</ele>
						<time>2025-04-28T17:13:21Z</time>
					</trkpt>
					<trkpt lat="43.447540" lon="4.986860">
						<ele>49</ele>
						<time>2025-04-28T17:13:29Z</time>
					</trkpt>
					<trkpt lat="43.447680" lon="4.987110">
						<ele>45</ele>
						<time>2025-04-28T17:13:34Z</time>
					</trkpt>
					<trkpt lat="43.447830" lon="4.987350">
						<ele>43</ele>
						<time>2025-04-28T17:13:40Z</time>
					</trkpt>
					<trkpt lat="43.448010" lon="4.987520">
						<ele>43</ele>
						<time>2025-04-28T17:13:45Z</time>
					</trkpt>
					<trkpt lat="43.448160" lon="4.987670">
						<ele>42</ele>
						<time>2025-04-28T17:13:49Z</time>
					</trkpt>
					<trkpt lat="43.448380" lon="4.987840">
						<ele>43</ele>
						<time>2025-04-28T17:13:55Z</time>
					</trkpt>
					<trkpt lat="43.448510" lon="4.987930">
						<ele>42</ele>
						<time>2025-04-28T17:13:58Z</time>
					</trkpt>
					<trkpt lat="43.448760" lon="4.987990">
						<ele>43</ele>
						<time>2025-04-28T17:14:04Z</time>
					</trkpt>
					<trkpt lat="43.449150" lon="4.987880">
						<ele>47</ele>
						<time>2025-04-28T17:14:14Z</time>
					</trkpt>
					<trkpt lat="43.449430" lon="4.987830">
						<ele>47</ele>
						<time>2025-04-28T17:14:20Z</time>
					</trkpt>
					<trkpt lat="43.449670" lon="4.987790">
						<ele>48</ele>
						<time>2025-04-28T17:14:26Z</time>
					</trkpt>
					<trkpt lat="43.450070" lon="4.987870">
						<ele>47</ele>
						<time>2025-04-28T17:14:35Z</time>
					</trkpt>
					<trkpt lat="43.450220" lon="4.987910">
						<ele>47</ele>
						<time>2025-04-28T17:14:39Z</time>
					</trkpt>
					<trkpt lat="43.450320" lon="4.987960">
						<ele>47</ele>
						<time>2025-04-28T17:14:41Z</time>
					</trkpt>
					<trkpt lat="43.450540" lon="4.988040">
						<ele>46</ele>
						<time>2025-04-28T17:14:47Z</time>
					</trkpt>
					<trkpt lat="43.450660" lon="4.988100">
						<ele>46</ele>
						<time>2025-04-28T17:14:50Z</time>
					</trkpt>
					<trkpt lat="43.450930" lon="4.988140">
						<ele>45</ele>
						<time>2025-04-28T17:14:56Z</time>
					</trkpt>
					<trkpt lat="43.451330" lon="4.987990">
						<ele>45</ele>
						<time>2025-04-28T17:15:06Z</time>
					</trkpt>
					<trkpt lat="43.451620" lon="4.987850">
						<ele>45</ele>
						<time>2025-04-28T17:15:13Z</time>
					</trkpt>
					<trkpt lat="43.451840" lon="4.987630">
						<ele>48</ele>
						<time>2025-04-28T17:15:19Z</time>
					</trkpt>
					<trkpt lat="43.452220" lon="4.987550">
						<ele>49</ele>
						<time>2025-04-28T17:15:28Z</time>
					</trkpt>
					<trkpt lat="43.452690" lon="4.987600">
						<ele>48</ele>
						<time>2025-04-28T17:15:39Z</time>
					</trkpt>
					<trkpt lat="43.453260" lon="4.987610">
						<ele>49</ele>
						<time>2025-04-28T17:15:53Z</time>
					</trkpt>
					<trkpt lat="43.453560" lon="4.987570">
						<ele>50</ele>
						<time>2025-04-28T17:16:00Z</time>
					</trkpt>
					<trkpt lat="43.453720" lon="4.987280">
						<ele>52</ele>
						<time>2025-04-28T17:16:06Z</time>
					</trkpt>
					<trkpt lat="43.453520" lon="4.987160">
						<ele>53</ele>
						<time>2025-04-28T17:16:11Z</time>
					</trkpt>
					<trkpt lat="43.453350" lon="4.986560">
						<ele>57</ele>
						<time>2025-04-28T17:16:22Z</time>
					</trkpt>
					<trkpt lat="43.453660" lon="4.986130">
						<ele>58</ele>
						<time>2025-04-28T17:16:32Z</time>
					</trkpt>
					<trkpt lat="43.453710" lon="4.985910">
						<ele>59</ele>
						<time>2025-04-28T17:16:36Z</time>
					</trkpt>
					<trkpt lat="43.453680" lon="4.985470">
						<ele>62</ele>
						<time>2025-04-28T17:16:43Z</time>
					</trkpt>
					<trkpt lat="43.453750" lon="4.985080">
						<ele>63</ele>
						<time>2025-04-28T17:16:50Z</time>
					</trkpt>
					<trkpt lat="43.453860" lon="4.984450">
						<ele>65</ele>
						<time>2025-04-28T17:17:01Z</time>
					</trkpt>
					<trkpt lat="43.454180" lon="4.983990">
						<ele>66</ele>
						<time>2025-04-28T17:17:12Z</time>
					</trkpt>
					<trkpt lat="43.454340" lon="4.983730">
						<ele>67</ele>
						<time>2025-04-28T17:17:18Z</time>
					</trkpt>
					<trkpt lat="43.454450" lon="4.983350">
						<ele>69</ele>
						<time>2025-04-28T17:17:25Z</time>
					</trkpt>
					<trkpt lat="43.454840" lon="4.983380">
						<ele>69</ele>
						<time>2025-04-28T17:17:34Z</time>
					</trkpt>
					<trkpt lat="43.455020" lon="4.983330">
						<ele>70</ele>
						<time>2025-04-28T17:17:38Z</time>
					</trkpt>
					<trkpt lat="43.455820" lon="4.983350">
						<ele>69</ele>
						<time>2025-04-28T17:17:57Z</time>
					</trkpt>
					<trkpt lat="43.456250" lon="4.983540">
						<ele>67</ele>
						<time>2025-04-28T17:18:07Z</time>
					</trkpt>
					<trkpt lat="43.456650" lon="4.983460">
						<ele>68</ele>
						<time>2025-04-28T17:18:17Z</time>
					</trkpt>
					<trkpt lat="43.456890" lon="4.983270">
						<ele>68</ele>
						<time>2025-04-28T17:18:23Z</time>
					</trkpt>
					<trkpt lat="43.457180" lon="4.983180">
						<ele>67</ele>
						<time>2025-04-28T17:18:30Z</time>
					</trkpt>
					<trkpt lat="43.457490" lon="4.983190">
						<ele>67</ele>
						<time>2025-04-28T17:18:38Z</time>
					</trkpt>
					<trkpt lat="43.457860" lon="4.982920">
						<ele>66</ele>
						<time>2025-04-28T17:18:47Z</time>
					</trkpt>
					<trkpt lat="43.457650" lon="4.983650">
						<ele>65</ele>
						<time>2025-04-28T17:19:01Z</time>
					</trkpt>
					<trkpt lat="43.457520" lon="4.984190">
						<ele>65</ele>
						<time>2025-04-28T17:19:10Z</time>
					</trkpt>
					<trkpt lat="43.457250" lon="4.984670">
						<ele>63</ele>
						<time>2025-04-28T17:19:21Z</time>
					</trkpt>
					<trkpt lat="43.457240" lon="4.985530">
						<ele>61</ele>
						<time>2025-04-28T17:19:35Z</time>
					</trkpt>
					<trkpt lat="43.457090" lon="4.986110">
						<ele>60</ele>
						<time>2025-04-28T17:19:46Z</time>
					</trkpt>
					<trkpt lat="43.456980" lon="4.986710">
						<ele>59</ele>
						<time>2025-04-28T17:19:56Z</time>
					</trkpt>
					<trkpt lat="43.456830" lon="4.987160">
						<ele>57</ele>
						<time>2025-04-28T17:20:04Z</time>
					</trkpt>
					<trkpt lat="43.456650" lon="4.987400">
						<ele>57</ele>
						<time>2025-04-28T17:20:10Z</time>
					</trkpt>
					<trkpt lat="43.456630" lon="4.987620">
						<ele>57</ele>
						<time>2025-04-28T17:20:14Z</time>
					</trkpt>
					<trkpt lat="43.455990" lon="4.987650">
						<ele>52</ele>
						<time>2025-04-28T17:20:29Z</time>
					</trkpt>
					<trkpt lat="43.455950" lon="4.987860">
						<ele>50</ele>
						<time>2025-04-28T17:20:33Z</time>
					</trkpt>
					<trkpt lat="43.455960" lon="4.988180">
						<ele>48</ele>
						<time>2025-04-28T17:20:38Z</time>
					</trkpt>
					<trkpt lat="43.455840" lon="4.988700">
						<ele>46</ele>
						<time>2025-04-28T17:20:47Z</time>
					</trkpt>
					<trkpt lat="43.455810" lon="4.989200">
						<ele>47</ele>
						<time>2025-04-28T17:20:56Z</time>
					</trkpt>
					<trkpt lat="43.455450" lon="4.989590">
						<ele>43</ele>
						<time>2025-04-28T17:21:07Z</time>
					</trkpt>
					<trkpt lat="43.455120" lon="4.989790">
						<ele>41</ele>
						<time>2025-04-28T17:21:15Z</time>
					</trkpt>
					<trkpt lat="43.454930" lon="4.989900">
						<ele>40</ele>
						<time>2025-04-28T17:21:20Z</time>
					</trkpt>
					<trkpt lat="43.454730" lon="4.990170">
						<ele>40</ele>
						<time>2025-04-28T17:21:26Z</time>
					</trkpt>
					<trkpt lat="43.454630" lon="4.990390">
						<ele>42</ele>
						<time>2025-04-28T17:21:31Z</time>
					</trkpt>
					<trkpt lat="43.454620" lon="4.990740">
						<ele>46</ele>
						<time>2025-04-28T17:21:37Z</time>
					</trkpt>
					<trkpt lat="43.454800" lon="4.991080">
						<ele>46</ele>
						<time>2025-04-28T17:21:44Z</time>
					</trkpt>
					<trkpt lat="43.455180" lon="4.991200">
						<ele>47</ele>
						<time>2025-04-28T17:21:53Z</time>
					</trkpt>
					<trkpt lat="43.455510" lon="4.991410">
						<ele>49</ele>
						<time>2025-04-28T17:22:01Z</time>
					</trkpt>
					<trkpt lat="43.456200" lon="4.991520">
						<ele>53</ele>
						<time>2025-04-28T17:22:18Z</time>
					</trkpt>
					<trkpt lat="43.456480" lon="4.991390">
						<ele>54</ele>
						<time>2025-04-28T17:22:25Z</time>
					</trkpt>
					<trkpt lat="43.456890" lon="4.991130">
						<ele>55</ele>
						<time>2025-04-28T17:22:35Z</time>
					</trkpt>
					<trkpt lat="43.457330" lon="4.990820">
						<ele>57</ele>
						<time>2025-04-28T17:22:47Z</time>
					</trkpt>
					<trkpt lat="43.457530" lon="4.991130">
						<ele>54</ele>
						<time>2025-04-28T17:22:54Z</time>
					</trkpt>
					<trkpt lat="43.457700" lon="4.991130">
						<ele>51</ele>
						<time>2025-04-28T17:22:58Z</time>
					</trkpt>
					<trkpt lat="43.457890" lon="4.990810">
						<ele>51</ele>
						<time>2025-04-28T17:23:05Z</time>
					</trkpt>
					<trkpt lat="43.457910" lon="4.990470">
						<ele>53</ele>
						<time>2025-04-28T17:23:10Z</time>
					</trkpt>
					<trkpt lat="43.458020" lon="4.990370">
						<ele>54</ele>
						<time>2025-04-28T17:23:13Z</time>
					</trkpt>
					<trkpt lat="43.458180" lon="4.989990">
						<ele>58</ele>
						<time>2025-04-28T17:23:21Z</time>
					</trkpt>
					<trkpt lat="43.458510" lon="4.989200">
						<ele>58</ele>
						<time>2025-04-28T17:23:36Z</time>
					</trkpt>
					<trkpt lat="43.458520" lon="4.988870">
						<ele>59</ele>
						<time>2025-04-28T17:23:42Z</time>
					</trkpt>
					<trkpt lat="43.458600" lon="4.988300">
						<ele>60</ele>
						<time>2025-04-28T17:23:52Z</time>
					</trkpt>
					<trkpt lat="43.458520" lon="4.988110">
						<ele>59</ele>
						<time>2025-04-28T17:23:56Z</time>
					</trkpt>
					<trkpt lat="43.458430" lon="4.987950">
						<ele>59</ele>
						<time>2025-04-28T17:23:59Z</time>
					</trkpt>
					<trkpt lat="43.458400" lon="4.987570">
						<ele>59</ele>
						<time>2025-04-28T17:24:05Z</time>
					</trkpt>
					<trkpt lat="43.458530" lon="4.987340">
						<ele>60</ele>
						<time>2025-04-28T17:24:10Z</time>
					</trkpt>
					<trkpt lat="43.458490" lon="4.987040">
						<ele>61</ele>
						<time>2025-04-28T17:24:16Z</time>
					</trkpt>
					<trkpt lat="43.458480" lon="4.986850">
						<ele>61</ele>
						<time>2025-04-28T17:24:19Z</time>
					</trkpt>
					<trkpt lat="43.458710" lon="4.986630">
						<ele>61</ele>
						<time>2025-04-28T17:24:25Z</time>
					</trkpt>
					<trkpt lat="43.459020" lon="4.986470">
						<ele>60</ele>
						<time>2025-04-28T17:24:33Z</time>
					</trkpt>
					<trkpt lat="43.459410" lon="4.986430">
						<ele>60</ele>
						<time>2025-04-28T17:24:42Z</time>
					</trkpt>
					<trkpt lat="43.459810" lon="4.986450">
						<ele>59</ele>
						<time>2025-04-28T17:24:52Z</time>
					</trkpt>
					<trkpt lat="43.460190" lon="4.986080">
						<ele>58</ele>
						<time>2025-04-28T17:25:02Z</time>
					</trkpt>
					<trkpt lat="43.460790" lon="4.985340">
						<ele>57</ele>
						<time>2025-04-28T17:25:21Z</time>
					</trkpt>
					<trkpt lat="43.461630" lon="4.984770">
						<ele>53</ele>
						<time>2025-04-28T17:25:43Z</time>
					</trkpt>
					<trkpt lat="43.461960" lon="4.984290">
						<ele>50</ele>
						<time>2025-04-28T17:25:54Z</time>
					</trkpt>
					<trkpt lat="43.462190" lon="4.983850">
						<ele>49</ele>
						<time>2025-04-28T17:26:03Z</time>
					</trkpt>
					<trkpt lat="43.462480" lon="4.983630">
						<ele>48</ele>
						<time>2025-04-28T17:26:11Z</time>
					</trkpt>
					<trkpt lat="43.462680" lon="4.983320">
						<ele>47</ele>
						<time>2025-04-28T17:26:18Z</time>
					</trkpt>
					<trkpt lat="43.462830" lon="4.983020">
						<ele>46</ele>
						<time>2025-04-28T17:26:24Z</time>
					</trkpt>
					<trkpt lat="43.462880" lon="4.982730">
						<ele>48</ele>
						<time>2025-04-28T17:26:29Z</time>
					</trkpt>
					<trkpt lat="43.462860" lon="4.982290">
						<ele>50</ele>
						<time>2025-04-28T17:26:37Z</time>
					</trkpt>
					<trkpt lat="43.462770" lon="4.981880">
						<ele>49</ele>
						<time>2025-04-28T17:26:44Z</time>
					</trkpt>
					<trkpt lat="43.462790" lon="4.981550">
						<ele>46</ele>
						<time>2025-04-28T17:26:50Z</time>
					</trkpt>
					<trkpt lat="43.462930" lon="4.981320">
						<ele>41</ele>
						<time>2025-04-28T17:26:55Z</time>
					</trkpt>
					<trkpt lat="43.463090" lon="4.981210">
						<ele>38</ele>
						<time>2025-04-28T17:26:59Z</time>
					</trkpt>
					<trkpt lat="43.463390" lon="4.981180">
						<ele>37</ele>
						<time>2025-04-28T17:27:06Z</time>
					</trkpt>
					<trkpt lat="43.463610" lon="4.981220">
						<ele>36</ele>
						<time>2025-04-28T17:27:11Z</time>
					</trkpt>
					<trkpt lat="43.463870" lon="4.981190">
						<ele>34</ele>
						<time>2025-04-28T17:27:17Z</time>
					</trkpt>
					<trkpt lat="43.464250" lon="4.981250">
						<ele>31</ele>
						<time>2025-04-28T17:27:26Z</time>
					</trkpt>
					<trkpt lat="43.464420" lon="4.981180">
						<ele>29</ele>
						<time>2025-04-28T17:27:30Z</time>
					</trkpt>
					<trkpt lat="43.464760" lon="4.980740">
						<ele>26</ele>
						<time>2025-04-28T17:27:41Z</time>
					</trkpt>
					<trkpt lat="43.464930" lon="4.980840">
						<ele>27</ele>
						<time>2025-04-28T17:27:46Z</time>
					</trkpt>
					<trkpt lat="43.465190" lon="4.980620">
						<ele>23</ele>
						<time>2025-04-28T17:27:53Z</time>
					</trkpt>
					<trkpt lat="43.465520" lon="4.980530">
						<ele>22</ele>
						<time>2025-04-28T17:28:01Z</time>
					</trkpt>
					<trkpt lat="43.465880" lon="4.980460">
						<ele>22</ele>
						<time>2025-04-28T17:28:09Z</time>
					</trkpt>
					<trkpt lat="43.466400" lon="4.980230">
						<ele>25</ele>
						<time>2025-04-28T17:28:22Z</time>
					</trkpt>
					<trkpt lat="43.467010" lon="4.980200">
						<ele>25</ele>
						<time>2025-04-28T17:28:36Z</time>
					</trkpt>
					<trkpt lat="43.467510" lon="4.980030">
						<ele>27</ele>
						<time>2025-04-28T17:28:48Z</time>
					</trkpt>
					<trkpt lat="43.468410" lon="4.980040">
						<ele>27</ele>
						<time>2025-04-28T17:29:09Z</time>
					</trkpt>
					<trkpt lat="43.469160" lon="4.980030">
						<ele>27</ele>
						<time>2025-04-28T17:29:27Z</time>
					</trkpt>
					<trkpt lat="43.469250" lon="4.979910">
						<ele>29</ele>
						<time>2025-04-28T17:29:30Z</time>
					</trkpt>
					<trkpt lat="43.470240" lon="4.979890">
						<ele>27</ele>
						<time>2025-04-28T17:29:53Z</time>
					</trkpt>
					<trkpt lat="43.470680" lon="4.979760">
						<ele>29</ele>
						<time>2025-04-28T17:30:03Z</time>
					</trkpt>
					<trkpt lat="43.470970" lon="4.979770">
						<ele>29</ele>
						<time>2025-04-28T17:30:10Z</time>
					</trkpt>
					<trkpt lat="43.471180" lon="4.979730">
						<ele>30</ele>
						<time>2025-04-28T17:30:15Z</time>
					</trkpt>
					<trkpt lat="43.471370" lon="4.979670">
						<ele>30</ele>
						<time>2025-04-28T17:30:20Z</time>
					</trkpt>
					<trkpt lat="43.471690" lon="4.979900">
						<ele>27</ele>
						<time>2025-04-28T17:30:28Z</time>
					</trkpt>
					<trkpt lat="43.472290" lon="4.979580">
						<ele>27</ele>
						<time>2025-04-28T17:30:43Z</time>
					</trkpt>
					<trkpt lat="43.472740" lon="4.979220">
						<ele>27</ele>
						<time>2025-04-28T17:30:55Z</time>
					</trkpt>
					<trkpt lat="43.473220" lon="4.978450">
						<ele>23</ele>
						<time>2025-04-28T17:31:12Z</time>
					</trkpt>
					<trkpt lat="43.473310" lon="4.978040">
						<ele>21</ele>
						<time>2025-04-28T17:31:20Z</time>
					</trkpt>
					<trkpt lat="43.473770" lon="4.978150">
						<ele>20</ele>
						<time>2025-04-28T17:31:31Z</time>
					</trkpt>
					<trkpt lat="43.473970" lon="4.978380">
						<ele>19</ele>
						<time>2025-04-28T17:31:37Z</time>
					</trkpt>
					<trkpt lat="43.474330" lon="4.978020">
						<ele>18</ele>
						<time>2025-04-28T17:31:47Z</time>
					</trkpt>
					<trkpt lat="43.474370" lon="4.978310">
						<ele>18</ele>
						<time>2025-04-28T17:31:52Z</time>
					</trkpt>
					<trkpt lat="43.474560" lon="4.978490">
						<ele>17</ele>
						<time>2025-04-28T17:31:57Z</time>
					</trkpt>
					<trkpt lat="43.474700" lon="4.978640">
						<ele>16</ele>
						<time>2025-04-28T17:32:02Z</time>
					</trkpt>
					<trkpt lat="43.474730" lon="4.978830">
						<ele>16</ele>
						<time>2025-04-28T17:32:05Z</time>
					</trkpt>
					<trkpt lat="43.474690" lon="4.979030">
						<ele>16</ele>
						<time>2025-04-28T17:32:08Z</time>
					</trkpt>
					<trkpt lat="43.475350" lon="4.978390">
						<ele>16</ele>
						<time>2025-04-28T17:32:27Z</time>
					</trkpt>
					<trkpt lat="43.475530" lon="4.978410">
						<ele>16</ele>
						<time>2025-04-28T17:32:31Z</time>
					</trkpt>
					<trkpt lat="43.475640" lon="4.978370">
						<ele>16</ele>
						<time>2025-04-28T17:32:34Z</time>
					</trkpt>
					<trkpt lat="43.475780" lon="4.978430">
						<ele>16</ele>
						<time>2025-04-28T17:32:37Z</time>
					</trkpt>
					<trkpt lat="43.475870" lon="4.978380">
						<ele>16</ele>
						<time>2025-04-28T17:32:40Z</time>
					</trkpt>
					<trkpt lat="43.476370" lon="4.978140">
						<ele>15</ele>
						<time>2025-04-28T17:32:52Z</time>
					</trkpt>
					<trkpt lat="43.476830" lon="4.977800">
						<ele>15</ele>
						<time>2025-04-28T17:33:04Z</time>
					</trkpt>
					<trkpt lat="43.477020" lon="4.977570">
						<ele>15</ele>
						<time>2025-04-28T17:33:10Z</time>
					</trkpt>
					<trkpt lat="43.477570" lon="4.977000">
						<ele>16</ele>
						<time>2025-04-28T17:33:26Z</time>
					</trkpt>
					<trkpt lat="43.478060" lon="4.976670">
						<ele>16</ele>
						<time>2025-04-28T17:33:39Z</time>
					</trkpt>
					<trkpt lat="43.478350" lon="4.976310">
						<ele>17</ele>
						<time>2025-04-28T17:33:48Z</time>
					</trkpt>
					<trkpt lat="43.478650" lon="4.975770">
						<ele>17</ele>
						<time>2025-04-28T17:34:00Z</time>
					</trkpt>
					<trkpt lat="43.478560" lon="4.975660">
						<ele>18</ele>
						<time>2025-04-28T17:34:02Z</time>
					</trkpt>
					<trkpt lat="43.478250" lon="4.975870">
						<ele>19</ele>
						<time>2025-04-28T17:34:11Z</time>
					</trkpt>
					<trkpt lat="43.477920" lon="4.976000">
						<ele>21</ele>
						<time>2025-04-28T17:34:19Z</time>
					</trkpt>
					<trkpt lat="43.477860" lon="4.975860">
						<ele>22</ele>
						<time>2025-04-28T17:34:21Z</time>
					</trkpt>
					<trkpt lat="43.477660" lon="4.975890">
						<ele>23</ele>
						<time>2025-04-28T17:34:26Z</time>
					</trkpt>
					<trkpt lat="43.477630" lon="4.975720">
						<ele>25</ele>
						<time>2025-04-28T17:34:29Z</time>
					</trkpt>
					<trkpt lat="43.477200" lon="4.975900">
						<ele>24</ele>
						<time>2025-04-28T17:34:39Z</time>
					</trkpt>
					<trkpt lat="43.476960" lon="4.975830">
						<ele>24</ele>
						<time>2025-04-28T17:34:45Z</time>
					</trkpt>
					<trkpt lat="43.476810" lon="4.975670">
						<ele>24</ele>
						<time>2025-04-28T17:34:50Z</time>
					</trkpt>
					<trkpt lat="43.476670" lon="4.975650">
						<ele>23</ele>
						<time>2025-04-28T17:34:53Z</time>
					</trkpt>
					<trkpt lat="43.476560" lon="4.975500">
						<ele>22</ele>
						<time>2025-04-28T17:34:57Z</time>
					</trkpt>
					<trkpt lat="43.476610" lon="4.975170">
						<ele>22</ele>
						<time>2025-04-28T17:35:02Z</time>
					</trkpt>
					<trkpt lat="43.476710" lon="4.974920">
						<ele>23</ele>
						<time>2025-04-28T17:35:07Z</time>
					</trkpt>
					<trkpt lat="43.476970" lon="4.974730">
						<ele>24</ele>
						<time>2025-04-28T17:35:14Z</time>
					</trkpt>
					<trkpt lat="43.477200" lon="4.974380">
						<ele>24</ele>
						<time>2025-04-28T17:35:22Z</time>
					</trkpt>
					<trkpt lat="43.477220" lon="4.974210">
						<ele>24</ele>
						<time>2025-04-28T17:35:25Z</time>
					</trkpt>
					<trkpt lat="43.477400" lon="4.973760">
						<ele>23</ele>
						<time>2025-04-28T17:35:34Z</time>
					</trkpt>
					<trkpt lat="43.477680" lon="4.973580">
						<ele>24</ele>
						<time>2025-04-28T17:35:41Z</time>
					</trkpt>
					<trkpt lat="43.478230" lon="4.972260">
						<ele>25</ele>
						<time>2025-04-28T17:36:07Z</time>
					</trkpt>
					<trkpt lat="43.478410" lon="4.970740">
						<ele>26</ele>
						<time>2025-04-28T17:36:33Z</time>
					</trkpt>
					<trkpt lat="43.478570" lon="4.970850">
						<ele>27</ele>
						<time>2025-04-28T17:36:37Z</time>
					</trkpt>
					<trkpt lat="43.478750" lon="4.970710">
						<ele>26</ele>
						<time>2025-04-28T17:36:42Z</time>
					</trkpt>
					<trkpt lat="43.478970" lon="4.970720">
						<ele>27</ele>
						<time>2025-04-28T17:36:47Z</time>
					</trkpt>
					<trkpt lat="43.479190" lon="4.971130">
						<ele>29</ele>
						<time>2025-04-28T17:36:55Z</time>
					</trkpt>
					<trkpt lat="43.479160" lon="4.971250">
						<ele>30</ele>
						<time>2025-04-28T17:36:58Z</time>
					</trkpt>
					<trkpt lat="43.479190" lon="4.971420">
						<ele>31</ele>
						<time>2025-04-28T17:37:01Z</time>
					</trkpt>
					<trkpt lat="43.479150" lon="4.971570">
						<ele>31</ele>
						<time>2025-04-28T17:37:03Z</time>
					</trkpt>
					<trkpt lat="43.479140" lon="4.971720">
						<ele>32</ele>
						<time>2025-04-28T17:37:06Z</time>
					</trkpt>
					<trkpt lat="43.479110" lon="4.971840">
						<ele>32</ele>
						<time>2025-04-28T17:37:08Z</time>
					</trkpt>
					<trkpt lat="43.479110" lon="4.971900">
						<ele>32</ele>
						<time>2025-04-28T17:37:09Z</time>
					</trkpt>
					<trkpt lat="43.479100" lon="4.971980">
						<ele>32</ele>
						<time>2025-04-28T17:37:10Z</time>
					</trkpt>
					<trkpt lat="43.479150" lon="4.972070">
						<ele>33</ele>
						<time>2025-04-28T17:37:12Z</time>
					</trkpt>
					<trkpt lat="43.479060" lon="4.972190">
						<ele>32</ele>
						<time>2025-04-28T17:37:15Z</time>
					</trkpt>
					<trkpt lat="43.479060" lon="4.972280">
						<ele>33</ele>
						<time>2025-04-28T17:37:17Z</time>
					</trkpt>
					<trkpt lat="43.479020" lon="4.972340">
						<ele>32</ele>
						<time>2025-04-28T17:37:18Z</time>
					</trkpt>
					<trkpt lat="43.479030" lon="4.972390">
						<ele>33</ele>
						<time>2025-04-28T17:37:19Z</time>
					</trkpt>
					<trkpt lat="43.478900" lon="4.972550">
						<ele>32</ele>
						<time>2025-04-28T17:37:23Z</time>
					</trkpt>
					<trkpt lat="43.478910" lon="4.972690">
						<ele>32</ele>
						<time>2025-04-28T17:37:25Z</time>
					</trkpt>
					<trkpt lat="43.478840" lon="4.972790">
						<ele>31</ele>
						<time>2025-04-28T17:37:28Z</time>
					</trkpt>
					<trkpt lat="43.478830" lon="4.972920">
						<ele>31</ele>
						<time>2025-04-28T17:37:30Z</time>
					</trkpt>
					<trkpt lat="43.478730" lon="4.972980">
						<ele>31</ele>
						<time>2025-04-28T17:37:33Z</time>
					</trkpt>
					<trkpt lat="43.478670" lon="4.973040">
						<ele>31</ele>
						<time>2025-04-28T17:37:34Z</time>
					</trkpt>
					<trkpt lat="43.478650" lon="4.973140">
						<ele>31</ele>
						<time>2025-04-28T17:37:36Z</time>
					</trkpt>
					<trkpt lat="43.478700" lon="4.973190">
						<ele>31</ele>
						<time>2025-04-28T17:37:38Z</time>
					</trkpt>
					<trkpt lat="43.478790" lon="4.973210">
						<ele>31</ele>
						<time>2025-04-28T17:37:40Z</time>
					</trkpt>
					<trkpt lat="43.478880" lon="4.973200">
						<ele>31</ele>
						<time>2025-04-28T17:37:42Z</time>
					</trkpt>
					<trkpt lat="43.478950" lon="4.973190">
						<ele>31</ele>
						<time>2025-04-28T17:37:43Z</time>
					</trkpt>
					<trkpt lat="43.479090" lon="4.973130">
						<ele>32</ele>
						<time>2025-04-28T17:37:47Z</time>
					</trkpt>
					<trkpt lat="43.479230" lon="4.973170">
						<ele>31</ele>
						<time>2025-04-28T17:37:50Z</time>
					</trkpt>
					<trkpt lat="43.479310" lon="4.973230">
						<ele>31</ele>
						<time>2025-04-28T17:37:52Z</time>
					</trkpt>
					<trkpt lat="43.479430" lon="4.973180">
						<ele>31</ele>
						<time>2025-04-28T17:37:55Z</time>
					</trkpt>
					<trkpt lat="43.479630" lon="4.973130">
						<ele>31</ele>
						<time>2025-04-28T17:38:00Z</time>
					</trkpt>
					<trkpt lat="43.479710" lon="4.973120">
						<ele>31</ele>
						<time>2025-04-28T17:38:02Z</time>
					</trkpt>
					<trkpt lat="43.479920" lon="4.973160">
						<ele>30</ele>
						<time>2025-04-28T17:38:07Z</time>
					</trkpt>
					<trkpt lat="43.480050" lon="4.973100">
						<ele>31</ele>
						<time>2025-04-28T17:38:10Z</time>
					</trkpt>
					<trkpt lat="43.480250" lon="4.972920">
						<ele>31</ele>
						<time>2025-04-28T17:38:16Z</time>
					</trkpt>
					<trkpt lat="43.480440" lon="4.972820">
						<ele>30</ele>
						<time>2025-04-28T17:38:20Z</time>
					</trkpt>
					<trkpt lat="43.480740" lon="4.972500">
						<ele>29</ele>
						<time>2025-04-28T17:38:29Z</time>
					</trkpt>
					<trkpt lat="43.480930" lon="4.972350">
						<ele>28</ele>
						<time>2025-04-28T17:38:34Z</time>
					</trkpt>
					<trkpt lat="43.480980" lon="4.972300">
						<ele>28</ele>
						<time>2025-04-28T17:38:36Z</time>
					</trkpt>
					<trkpt lat="43.481490" lon="4.972080">
						<ele>28</ele>
						<time>2025-04-28T17:38:48Z</time>
					</trkpt>
					<trkpt lat="43.481630" lon="4.971990">
						<ele>27</ele>
						<time>2025-04-28T17:38:52Z</time>
					</trkpt>
					<trkpt lat="43.481770" lon="4.971900">
						<ele>27</ele>
						<time>2025-04-28T17:38:55Z</time>
					</trkpt>
					<trkpt lat="43.481910" lon="4.971730">
						<ele>27</ele>
						<time>2025-04-28T17:39:00Z</time>
					</trkpt>
					<trkpt lat="43.482040" lon="4.971640">
						<ele>27</ele>
						<time>2025-04-28T17:39:03Z</time>
					</trkpt>
					<trkpt lat="43.482160" lon="4.971480">
						<ele>26</ele>
						<time>2025-04-28T17:39:07Z</time>
					</trkpt>
					<trkpt lat="43.482300" lon="4.971320">
						<ele>26</ele>
						<time>2025-04-28T17:39:11Z</time>
					</trkpt>
					<trkpt lat="43.482430" lon="4.971270">
						<ele>26</ele>
						<time>2025-04-28T17:39:14Z</time>
					</trkpt>
					<trkpt lat="43.482470" lon="4.971190">
						<ele>26</ele>
						<time>2025-04-28T17:39:16Z</time>
					</trkpt>
					<trkpt lat="43.482630" lon="4.971120">
						<ele>25</ele>
						<time>2025-04-28T17:39:20Z</time>
					</trkpt>
					<trkpt lat="43.482820" lon="4.970880">
						<ele>24</ele>
						<time>2025-04-28T17:39:26Z</time>
					</trkpt>
					<trkpt lat="43.482870" lon="4.971000">
						<ele>24</ele>
						<time>2025-04-28T17:39:28Z</time>
					</trkpt>
					<trkpt lat="43.482970" lon="4.971090">
						<ele>24</ele>
						<time>2025-04-28T17:39:31Z</time>
					</trkpt>
					<trkpt lat="43.482980" lon="4.971140">
						<ele>24</ele>
						<time>2025-04-28T17:39:32Z</time>
					</trkpt>
					<trkpt lat="43.482920" lon="4.971550">
						<ele>24</ele>
						<time>2025-04-28T17:39:39Z</time>
					</trkpt>
					<trkpt lat="43.482840" lon="4.972010">
						<ele>26</ele>
						<time>2025-04-28T17:39:47Z</time>
					</trkpt>
					<trkpt lat="43.482830" lon="4.972090">
						<ele>26</ele>
						<time>2025-04-28T17:39:49Z</time>
					</trkpt>
					<trkpt lat="43.482760" lon="4.972200">
						<ele>26</ele>
						<time>2025-04-28T17:39:51Z</time>
					</trkpt>
					<trkpt lat="43.482210" lon="4.972640">
						<ele>27</ele>
						<time>2025-04-28T17:40:06Z</time>
					</trkpt>
					<trkpt lat="43.482160" lon="4.972610">
						<ele>27</ele>
						<time>2025-04-28T17:40:07Z</time>
					</trkpt>
					<trkpt lat="43.481920" lon="4.972740">
						<ele>27</ele>
						<time>2025-04-28T17:40:13Z</time>
					</trkpt>
					<trkpt lat="43.481920" lon="4.972790">
						<ele>27</ele>
						<time>2025-04-28T17:40:14Z</time>
					</trkpt>
					<trkpt lat="43.481860" lon="4.972850">
						<ele>27</ele>
						<time>2025-04-28T17:40:16Z</time>
					</trkpt>
					<trkpt lat="43.481810" lon="4.972900">
						<ele>26</ele>
						<time>2025-04-28T17:40:17Z</time>
					</trkpt>
					<trkpt lat="43.481860" lon="4.972990">
						<ele>26</ele>
						<time>2025-04-28T17:40:19Z</time>
					</trkpt>
					<trkpt lat="43.481960" lon="4.973310">
						<ele>25</ele>
						<time>2025-04-28T17:40:25Z</time>
					</trkpt>
					<trkpt lat="43.482020" lon="4.973240">
						<ele>25</ele>
						<time>2025-04-28T17:40:27Z</time>
					</trkpt>
					<trkpt lat="43.482300" lon="4.972960">
						<ele>26</ele>
						<time>2025-04-28T17:40:35Z</time>
					</trkpt>
					<trkpt lat="43.482520" lon="4.972760">
						<ele>27</ele>
						<time>2025-04-28T17:40:41Z</time>
					</trkpt>
					<trkpt lat="43.482710" lon="4.972610">
						<ele>27</ele>
						<time>2025-04-28T17:40:46Z</time>
					</trkpt>
					<trkpt lat="43.482790" lon="4.972660">
						<ele>27</ele>
						<time>2025-04-28T17:40:48Z</time>
					</trkpt>
					<trkpt lat="43.482840" lon="4.972790">
						<ele>26</ele>
						<time>2025-04-28T17:40:51Z</time>
					</trkpt>
					<trkpt lat="43.482850" lon="4.972870">
						<ele>26</ele>
						<time>2025-04-28T17:40:52Z</time>
					</trkpt>
					<trkpt lat="43.482770" lon="4.972960">
						<ele>26</ele>
						<time>2025-04-28T17:40:55Z</time>
					</trkpt>
					<trkpt lat="43.482740" lon="4.973120">
						<ele>26</ele>
						<time>2025-04-28T17:40:57Z</time>
					</trkpt>
					<trkpt lat="43.482730" lon="4.973390">
						<ele>25</ele>
						<time>2025-04-28T17:41:02Z</time>
					</trkpt>
					<trkpt lat="43.482790" lon="4.973690">
						<ele>25</ele>
						<time>2025-04-28T17:41:07Z</time>
					</trkpt>
					<trkpt lat="43.482860" lon="4.974030">
						<ele>25</ele>
						<time>2025-04-28T17:41:13Z</time>
					</trkpt>
					<trkpt lat="43.483010" lon="4.974340">
						<ele>26</ele>
						<time>2025-04-28T17:41:19Z</time>
					</trkpt>
					<trkpt lat="43.483210" lon="4.974400">
						<ele>27</ele>
						<time>2025-04-28T17:41:24Z</time>
					</trkpt>
					<trkpt lat="43.483280" lon="4.974590">
						<ele>27</ele>
						<time>2025-04-28T17:41:28Z</time>
					</trkpt>
					<trkpt lat="43.483340" lon="4.974560">
						<ele>28</ele>
						<time>2025-04-28T17:41:29Z</time>
					</trkpt>
					<trkpt lat="43.483360" lon="4.974520">
						<ele>28</ele>
						<time>2025-04-28T17:41:30Z</time>
					</trkpt>
					<trkpt lat="43.483430" lon="4.974420">
						<ele>28</ele>
						<time>2025-04-28T17:41:33Z</time>
					</trkpt>
					<trkpt lat="43.483480" lon="4.974170">
						<ele>29</ele>
						<time>2025-04-28T17:41:37Z</time>
					</trkpt>
					<trkpt lat="43.483570" lon="4.974020">
						<ele>29</ele>
						<time>2025-04-28T17:41:40Z</time>
					</trkpt>
					<trkpt lat="43.483530" lon="4.973960">
						<ele>29</ele>
						<time>2025-04-28T17:41:42Z</time>
					</trkpt>
					<trkpt lat="43.483530" lon="4.973830">
						<ele>29</ele>
						<time>2025-04-28T17:41:44Z</time>
					</trkpt>
					<trkpt lat="43.483570" lon="4.973720">
						<ele>30</ele>
						<time>2025-04-28T17:41:46Z</time>
					</trkpt>
					<trkpt lat="43.483780" lon="4.973730">
						<ele>31</ele>
						<time>2025-04-28T17:41:51Z</time>
					</trkpt>
					<trkpt lat="43.483830" lon="4.973780">
						<ele>31</ele>
						<time>2025-04-28T17:41:52Z</time>
					</trkpt>
					<trkpt lat="43.483980" lon="4.973780">
						<ele>32</ele>
						<time>2025-04-28T17:41:56Z</time>
					</trkpt>
					<trkpt lat="43.484130" lon="4.973670">
						<ele>33</ele>
						<time>2025-04-28T17:42:00Z</time>
					</trkpt>
					<trkpt lat="43.484290" lon="4.973550">
						<ele>34</ele>
						<time>2025-04-28T17:42:04Z</time>
					</trkpt>
					<trkpt lat="43.484470" lon="4.973490">
						<ele>35</ele>
						<time>2025-04-28T17:42:08Z</time>
					</trkpt>
					<trkpt lat="43.484630" lon="4.973380">
						<ele>36</ele>
						<time>2025-04-28T17:42:12Z</time>
					</trkpt>
					<trkpt lat="43.484790" lon="4.972980">
						<ele>35</ele>
						<time>2025-04-28T17:42:20Z</time>
					</trkpt>
					<trkpt lat="43.484870" lon="4.972970">
						<ele>35</ele>
						<time>2025-04-28T17:42:22Z</time>
					</trkpt>
					<trkpt lat="43.484880" lon="4.973050">
						<ele>36</ele>
						<time>2025-04-28T17:42:23Z</time>
					</trkpt>
					<trkpt lat="43.484930" lon="4.973070">
						<ele>36</ele>
						<time>2025-04-28T17:42:25Z</time>
					</trkpt>
					<trkpt lat="43.485050" lon="4.973050">
						<ele>36</ele>
						<time>2025-04-28T17:42:28Z</time>
					</trkpt>
					<trkpt lat="43.485200" lon="4.973160">
						<ele>36</ele>
						<time>2025-04-28T17:42:31Z</time>
					</trkpt>
					<trkpt lat="43.485300" lon="4.973200">
						<ele>36</ele>
						<time>2025-04-28T17:42:34Z</time>
					</trkpt>
					<trkpt lat="43.485350" lon="4.973300">
						<ele>36</ele>
						<time>2025-04-28T17:42:36Z</time>
					</trkpt>
					<trkpt lat="43.485560" lon="4.973400">
						<ele>35</ele>
						<time>2025-04-28T17:42:41Z</time>
					</trkpt>
					<trkpt lat="43.485630" lon="4.973390">
						<ele>35</ele>
						<time>2025-04-28T17:42:43Z</time>
					</trkpt>
					<trkpt lat="43.485660" lon="4.973280">
						<ele>35</ele>
						<time>2025-04-28T17:42:45Z</time>
					</trkpt>
					<trkpt lat="43.485630" lon="4.973160">
						<ele>35</ele>
						<time>2025-04-28T17:42:47Z</time>
					</trkpt>
					<trkpt lat="43.485620" lon="4.973030">
						<ele>35</ele>
						<time>2025-04-28T17:42:49Z</time>
					</trkpt>
					<trkpt lat="43.485670" lon="4.972890">
						<ele>35</ele>
						<time>2025-04-28T17:42:52Z</time>
					</trkpt>
					<trkpt lat="43.485790" lon="4.972800">
						<ele>35</ele>
						<time>2025-04-28T17:42:55Z</time>
					</trkpt>
					<trkpt lat="43.485890" lon="4.972780">
						<ele>35</ele>
						<time>2025-04-28T17:42:57Z</time>
					</trkpt>
					<trkpt lat="43.485970" lon="4.972680">
						<ele>35</ele>
						<time>2025-04-28T17:43:00Z</time>
					</trkpt>
					<trkpt lat="43.485970" lon="4.972620">
						<ele>35</ele>
						<time>2025-04-28T17:43:01Z</time>
					</trkpt>
					<trkpt lat="43.485920" lon="4.972630">
						<ele>35</ele>
						<time>2025-04-28T17:43:02Z</time>
					</trkpt>
					<trkpt lat="43.485890" lon="4.972540">
						<ele>35</ele>
						<time>2025-04-28T17:43:04Z</time>
					</trkpt>
					<trkpt lat="43.485900" lon="4.972410">
						<ele>34</ele>
						<time>2025-04-28T17:43:06Z</time>
					</trkpt>
					<trkpt lat="43.485880" lon="4.972120">
						<ele>32</ele>
						<time>2025-04-28T17:43:11Z</time>
					</trkpt>
					<trkpt lat="43.485890" lon="4.971980">
						<ele>31</ele>
						<time>2025-04-28T17:43:13Z</time>
					</trkpt>
					<trkpt lat="43.485870" lon="4.971870">
						<ele>31</ele>
						<time>2025-04-28T17:43:15Z</time>
					</trkpt>
					<trkpt lat="43.485880" lon="4.971780">
						<ele>30</ele>
						<time>2025-04-28T17:43:17Z</time>
					</trkpt>
					<trkpt lat="43.485810" lon="4.971550">
						<ele>28</ele>
						<time>2025-04-28T17:43:21Z</time>
					</trkpt>
					<trkpt lat="43.485720" lon="4.971230">
						<ele>26</ele>
						<time>2025-04-28T17:43:27Z</time>
					</trkpt>
					<trkpt lat="43.485540" lon="4.971020">
						<ele>24</ele>
						<time>2025-04-28T17:43:32Z</time>
					</trkpt>
					<trkpt lat="43.485360" lon="4.970900">
						<ele>23</ele>
						<time>2025-04-28T17:43:37Z</time>
					</trkpt>
					<trkpt lat="43.485080" lon="4.970530">
						<ele>21</ele>
						<time>2025-04-28T17:43:46Z</time>
					</trkpt>
					<trkpt lat="43.485030" lon="4.970340">
						<ele>20</ele>
						<time>2025-04-28T17:43:49Z</time>
					</trkpt>
					<trkpt lat="43.484980" lon="4.970250">
						<ele>20</ele>
						<time>2025-04-28T17:43:51Z</time>
					</trkpt>
					<trkpt lat="43.484920" lon="4.970140">
						<ele>19</ele>
						<time>2025-04-28T17:43:54Z</time>
					</trkpt>
					<trkpt lat="43.484900" lon="4.969980">
						<ele>19</ele>
						<time>2025-04-28T17:43:56Z</time>
					</trkpt>
					<trkpt lat="43.484690" lon="4.969740">
						<ele>19</ele>
						<time>2025-04-28T17:44:03Z</time>
					</trkpt>
					<trkpt lat="43.484490" lon="4.969590">
						<ele>20</ele>
						<time>2025-04-28T17:44:08Z</time>
					</trkpt>
					<trkpt lat="43.484150" lon="4.969470">
						<ele>21</ele>
						<time>2025-04-28T17:44:16Z</time>
					</trkpt>
					<trkpt lat="43.483980" lon="4.969350">
						<ele>21</ele>
						<time>2025-04-28T17:44:21Z</time>
					</trkpt>
					<trkpt lat="43.483740" lon="4.969190">
						<ele>21</ele>
						<time>2025-04-28T17:44:27Z</time>
					</trkpt>
					<trkpt lat="43.483480" lon="4.969120">
						<ele>21</ele>
						<time>2025-04-28T17:44:33Z</time>
					</trkpt>
					<trkpt lat="43.483360" lon="4.969090">
						<ele>21</ele>
						<time>2025-04-28T17:44:36Z</time>
					</trkpt>
					<trkpt lat="43.483410" lon="4.968910">
						<ele>21</ele>
						<time>2025-04-28T17:44:39Z</time>
					</trkpt>
					<trkpt lat="43.483440" lon="4.968700">
						<ele>21</ele>
						<time>2025-04-28T17:44:43Z</time>
					</trkpt>
					<trkpt lat="43.483530" lon="4.968420">
						<ele>21</ele>
						<time>2025-04-28T17:44:48Z</time>
					</trkpt>
					<trkpt lat="43.483890" lon="4.968240">
						<ele>21</ele>
						<time>2025-04-28T17:44:57Z</time>
					</trkpt>
					<trkpt lat="43.484470" lon="4.967990">
						<ele>21</ele>
						<time>2025-04-28T17:45:11Z</time>
					</trkpt>
					<trkpt lat="43.485000" lon="4.967790">
						<ele>20</ele>
						<time>2025-04-28T17:45:24Z</time>
					</trkpt>
					<trkpt lat="43.485260" lon="4.967670">
						<ele>20</ele>
						<time>2025-04-28T17:45:31Z</time>
					</trkpt>
					<trkpt lat="43.485580" lon="4.967550">
						<ele>19</ele>
						<time>2025-04-28T17:45:38Z</time>
					</trkpt>
					<trkpt lat="43.485970" lon="4.967390">
						<ele>19</ele>
						<time>2025-04-28T17:45:48Z</time>
					</trkpt>
					<trkpt lat="43.486230" lon="4.967320">
						<ele>19</ele>
						<time>2025-04-28T17:45:54Z</time>
					</trkpt>
					<trkpt lat="43.486660" lon="4.967170">
						<ele>19</ele>
						<time>2025-04-28T17:46:04Z</time>
					</trkpt>
					<trkpt lat="43.486870" lon="4.967130">
						<ele>19</ele>
						<time>2025-04-28T17:46:09Z</time>
					</trkpt>
					<trkpt lat="43.487520" lon="4.966940">
						<ele>19</ele>
						<time>2025-04-28T17:46:25Z</time>
					</trkpt>
					<trkpt lat="43.487600" lon="4.966920">
						<ele>19</ele>
						<time>2025-04-28T17:46:27Z</time>
					</trkpt>
					<trkpt lat="43.487700" lon="4.966990">
						<ele>19</ele>
						<time>2025-04-28T17:46:29Z</time>
					</trkpt>
					<trkpt lat="43.487730" lon="4.967110">
						<ele>19</ele>
						<time>2025-04-28T17:46:31Z</time>
					</trkpt>
					<trkpt lat="43.487790" lon="4.967300">
						<ele>19</ele>
						<time>2025-04-28T17:46:35Z</time>
					</trkpt>
					<trkpt lat="43.487860" lon="4.967580">
						<ele>20</ele>
						<time>2025-04-28T17:46:40Z</time>
					</trkpt>
					<trkpt lat="43.488020" lon="4.967640">
						<ele>19</ele>
						<time>2025-04-28T17:46:44Z</time>
					</trkpt>
					<trkpt lat="43.488230" lon="4.967720">
						<ele>19</ele>
						<time>2025-04-28T17:46:49Z</time>
					</trkpt>
					<trkpt lat="43.488430" lon="4.967760">
						<ele>19</ele>
						<time>2025-04-28T17:46:54Z</time>
					</trkpt>
					<trkpt lat="43.488480" lon="4.967890">
						<ele>19</ele>
						<time>2025-04-28T17:46:56Z</time>
					</trkpt>
					<trkpt lat="43.488500" lon="4.968040">
						<ele>20</ele>
						<time>2025-04-28T17:46:59Z</time>
					</trkpt>
					<trkpt lat="43.488550" lon="4.968140">
						<ele>20</ele>
						<time>2025-04-28T17:47:01Z</time>
					</trkpt>
					<trkpt lat="43.488660" lon="4.968490">
						<ele>22</ele>
						<time>2025-04-28T17:47:07Z</time>
					</trkpt>
					<trkpt lat="43.488890" lon="4.968420">
						<ele>21</ele>
						<time>2025-04-28T17:47:13Z</time>
					</trkpt>
					<trkpt lat="43.489110" lon="4.968600">
						<ele>22</ele>
						<time>2025-04-28T17:47:19Z</time>
					</trkpt>
					<trkpt lat="43.489370" lon="4.968730">
						<ele>21</ele>
						<time>2025-04-28T17:47:25Z</time>
					</trkpt>
					<trkpt lat="43.489760" lon="4.968790">
						<ele>20</ele>
						<time>2025-04-28T17:47:34Z</time>
					</trkpt>
					<trkpt lat="43.490050" lon="4.968990">
						<ele>20</ele>
						<time>2025-04-28T17:47:42Z</time>
					</trkpt>
					<trkpt lat="43.490250" lon="4.969020">
						<ele>20</ele>
						<time>2025-04-28T17:47:47Z</time>
					</trkpt>
					<trkpt lat="43.490370" lon="4.968880">
						<ele>19</ele>
						<time>2025-04-28T17:47:50Z</time>
					</trkpt>
					<trkpt lat="43.490470" lon="4.968810">
						<ele>19</ele>
						<time>2025-04-28T17:47:53Z</time>
					</trkpt>
					<trkpt lat="43.490590" lon="4.968610">
						<ele>19</ele>
						<time>2025-04-28T17:47:57Z</time>
					</trkpt>
					<trkpt lat="43.490700" lon="4.968830">
						<ele>20</ele>
						<time>2025-04-28T17:48:02Z</time>
					</trkpt>
					<trkpt lat="43.490820" lon="4.969110">
						<ele>20</ele>
						<time>2025-04-28T17:48:07Z</time>
					</trkpt>
					<trkpt lat="43.490900" lon="4.969330">
						<ele>20</ele>
						<time>2025-04-28T17:48:12Z</time>
					</trkpt>
					<trkpt lat="43.491010" lon="4.969520">
						<ele>19</ele>
						<time>2025-04-28T17:48:16Z</time>
					</trkpt>
					<trkpt lat="43.491170" lon="4.969690">
						<ele>19</ele>
						<time>2025-04-28T17:48:20Z</time>
					</trkpt>
					<trkpt lat="43.491310" lon="4.969820">
						<ele>18</ele>
						<time>2025-04-28T17:48:24Z</time>
					</trkpt>
					<trkpt lat="43.491520" lon="4.969910">
						<ele>17</ele>
						<time>2025-04-28T17:48:29Z</time>
					</trkpt>
					<trkpt lat="43.491800" lon="4.970080">
						<ele>17</ele>
						<time>2025-04-28T17:48:37Z</time>
					</trkpt>
					<trkpt lat="43.492000" lon="4.970180">
						<ele>17</ele>
						<time>2025-04-28T17:48:42Z</time>
					</trkpt>
					<trkpt lat="43.492290" lon="4.970340">
						<ele>18</ele>
						<time>2025-04-28T17:48:49Z</time>
					</trkpt>
					<trkpt lat="43.492510" lon="4.970460">
						<ele>19</ele>
						<time>2025-04-28T17:48:54Z</time>
					</trkpt>
					<trkpt lat="43.492750" lon="4.970610">
						<ele>19</ele>
						<time>2025-04-28T17:49:01Z</time>
					</trkpt>
					<trkpt lat="43.493040" lon="4.970870">
						<ele>18</ele>
						<time>2025-04-28T17:49:09Z</time>
					</trkpt>
					<trkpt lat="43.493320" lon="4.971060">
						<ele>17</ele>
						<time>2025-04-28T17:49:16Z</time>
					</trkpt>
					<trkpt lat="43.493550" lon="4.971210">
						<ele>17</ele>
						<time>2025-04-28T17:49:22Z</time>
					</trkpt>
					<trkpt lat="43.493750" lon="4.971390">
						<ele>17</ele>
						<time>2025-04-28T17:49:27Z</time>
					</trkpt>
					<trkpt lat="43.494000" lon="4.971690">
						<ele>17</ele>
						<time>2025-04-28T17:49:35Z</time>
					</trkpt>
					<trkpt lat="43.494200" lon="4.971950">
						<ele>17</ele>
						<time>2025-04-28T17:49:42Z</time>
					</trkpt>
					<trkpt lat="43.494450" lon="4.972270">
						<ele>17</ele>
						<time>2025-04-28T17:49:50Z</time>
					</trkpt>
					<trkpt lat="43.494740" lon="4.972580">
						<ele>18</ele>
						<time>2025-04-28T17:49:58Z</time>
					</trkpt>
					<trkpt lat="43.494950" lon="4.972800">
						<ele>18</ele>
						<time>2025-04-28T17:50:04Z</time>
					</trkpt>
					<trkpt lat="43.495140" lon="4.973030">
						<ele>18</ele>
						<time>2025-04-28T17:50:10Z</time>
					</trkpt>
					<trkpt lat="43.495320" lon="4.973230">
						<ele>18</ele>
						<time>2025-04-28T17:50:16Z</time>
					</trkpt>
					<trkpt lat="43.495450" lon="4.973370">
						<ele>17</ele>
						<time>2025-04-28T17:50:19Z</time>
					</trkpt>
					<trkpt lat="43.495440" lon="4.973450">
						<ele>18</ele>
						<time>2025-04-28T17:50:21Z</time>
					</trkpt>
					<trkpt lat="43.495380" lon="4.973520">
						<ele>18</ele>
						<time>2025-04-28T17:50:23Z</time>
					</trkpt>
					<trkpt lat="43.495210" lon="4.973750">
						<ele>18</ele>
						<time>2025-04-28T17:50:28Z</time>
					</trkpt>
					<trkpt lat="43.495000" lon="4.974010">
						<ele>19</ele>
						<time>2025-04-28T17:50:35Z</time>
					</trkpt>
					<trkpt lat="43.494870" lon="4.974160">
						<ele>19</ele>
						<time>2025-04-28T17:50:39Z</time>
					</trkpt>
					<trkpt lat="43.494630" lon="4.974450">
						<ele>19</ele>
						<time>2025-04-28T17:50:46Z</time>
					</trkpt>
					<trkpt lat="43.494570" lon="4.974480">
						<ele>19</ele>
						<time>2025-04-28T17:50:48Z</time>
					</trkpt>
					<trkpt lat="43.494470" lon="4.974480">
						<ele>19</ele>
						<time>2025-04-28T17:50:50Z</time>
					</trkpt>
					<trkpt lat="43.494420" lon="4.974460">
						<ele>19</ele>
						<time>2025-04-28T17:50:51Z</time>
					</trkpt>
					<trkpt lat="43.494370" lon="4.974460">
						<ele>18</ele>
						<time>2025-04-28T17:50:52Z</time>
					</trkpt>
					<trkpt lat="43.494330" lon="4.974530">
						<ele>19</ele>
						<time>2025-04-28T17:50:54Z</time>
					</trkpt>
					<trkpt lat="43.494330" lon="4.974640">
						<ele>19</ele>
						<time>2025-04-28T17:50:56Z</time>
					</trkpt>
					<trkpt lat="43.494300" lon="4.974810">
						<ele>20</ele>
						<time>2025-04-28T17:50:59Z</time>
					</trkpt>
					<trkpt lat="43.494240" lon="4.974890">
						<ele>20</ele>
						<time>2025-04-28T17:51:01Z</time>
					</trkpt>
					<trkpt lat="43.494080" lon="4.975090">
						<ele>20</ele>
						<time>2025-04-28T17:51:06Z</time>
					</trkpt>
					<trkpt lat="43.493980" lon="4.975250">
						<ele>20</ele>
						<time>2025-04-28T17:51:09Z</time>
					</trkpt>
					<trkpt lat="43.493910" lon="4.975380">
						<ele>20</ele>
						<time>2025-04-28T17:51:12Z</time>
					</trkpt>
					<trkpt lat="43.493850" lon="4.975520">
						<ele>20</ele>
						<time>2025-04-28T17:51:15Z</time>
					</trkpt>
					<trkpt lat="43.493780" lon="4.975660">
						<ele>19</ele>
						<time>2025-04-28T17:51:18Z</time>
					</trkpt>
					<trkpt lat="43.493740" lon="4.975790">
						<ele>19</ele>
						<time>2025-04-28T17:51:20Z</time>
					</trkpt>
					<trkpt lat="43.493700" lon="4.975980">
						<ele>19</ele>
						<time>2025-04-28T17:51:23Z</time>
					</trkpt>
					<trkpt lat="43.493710" lon="4.976180">
						<ele>20</ele>
						<time>2025-04-28T17:51:27Z</time>
					</trkpt>
					<trkpt lat="43.493780" lon="4.976420">
						<ele>21</ele>
						<time>2025-04-28T17:51:31Z</time>
					</trkpt>
					<trkpt lat="43.493810" lon="4.976580">
						<ele>21</ele>
						<time>2025-04-28T17:51:34Z</time>
					</trkpt>
					<trkpt lat="43.493680" lon="4.977490">
						<ele>22</ele>
						<time>2025-04-28T17:51:50Z</time>
					</trkpt>
					<trkpt lat="43.493690" lon="4.977610">
						<ele>22</ele>
						<time>2025-04-28T17:51:52Z</time>
					</trkpt>
					<trkpt lat="43.493730" lon="4.977760">
						<ele>23</ele>
						<time>2025-04-28T17:51:54Z</time>
					</trkpt>
					<trkpt lat="43.493670" lon="4.978250">
						<ele>25</ele>
						<time>2025-04-28T17:52:03Z</time>
					</trkpt>
					<trkpt lat="43.493610" lon="4.978390">
						<ele>25</ele>
						<time>2025-04-28T17:52:06Z</time>
					</trkpt>
					<trkpt lat="43.493420" lon="4.978500">
						<ele>25</ele>
						<time>2025-04-28T17:52:10Z</time>
					</trkpt>
					<trkpt lat="43.493310" lon="4.978560">
						<ele>24</ele>
						<time>2025-04-28T17:52:13Z</time>
					</trkpt>
					<trkpt lat="43.493220" lon="4.978720">
						<ele>25</ele>
						<time>2025-04-28T17:52:17Z</time>
					</trkpt>
					<trkpt lat="43.493140" lon="4.978850">
						<ele>25</ele>
						<time>2025-04-28T17:52:20Z</time>
					</trkpt>
					<trkpt lat="43.493100" lon="4.979060">
						<ele>26</ele>
						<time>2025-04-28T17:52:23Z</time>
					</trkpt>
					<trkpt lat="43.493080" lon="4.979250">
						<ele>26</ele>
						<time>2025-04-28T17:52:26Z</time>
					</trkpt>
					<trkpt lat="43.493020" lon="4.979390">
						<ele>27</ele>
						<time>2025-04-28T17:52:29Z</time>
					</trkpt>
					<trkpt lat="43.492970" lon="4.979480">
						<ele>27</ele>
						<time>2025-04-28T17:52:31Z</time>
					</trkpt>
					<trkpt lat="43.492810" lon="4.979560">
						<ele>27</ele>
						<time>2025-04-28T17:52:35Z</time>
					</trkpt>
					<trkpt lat="43.492700" lon="4.979570">
						<ele>27</ele>
						<time>2025-04-28T17:52:38Z</time>
					</trkpt>
					<trkpt lat="43.492500" lon="4.979550">
						<ele>27</ele>
						<time>2025-04-28T17:52:42Z</time>
					</trkpt>
					<trkpt lat="43.492340" lon="4.979540">
						<ele>27</ele>
						<time>2025-04-28T17:52:46Z</time>
					</trkpt>
					<trkpt lat="43.492230" lon="4.979980">
						<ele>29</ele>
						<time>2025-04-28T17:52:54Z</time>
					</trkpt>
					<trkpt lat="43.492220" lon="4.980040">
						<ele>29</ele>
						<time>2025-04-28T17:52:55Z</time>
					</trkpt>
					<trkpt lat="43.492140" lon="4.980250">
						<ele>29</ele>
						<time>2025-04-28T17:52:59Z</time>
					</trkpt>
					<trkpt lat="43.492150" lon="4.980630">
						<ele>29</ele>
						<time>2025-04-28T17:53:06Z</time>
					</trkpt>
					<trkpt lat="43.492230" lon="4.981160">
						<ele>29</ele>
						<time>2025-04-28T17:53:15Z</time>
					</trkpt>
					<trkpt lat="43.492170" lon="4.981420">
						<ele>29</ele>
						<time>2025-04-28T17:53:19Z</time>
					</trkpt>
					<trkpt lat="43.492130" lon="4.981570">
						<ele>29</ele>
						<time>2025-04-28T17:53:22Z</time>
					</trkpt>
					<trkpt lat="43.492060" lon="4.981660">
						<ele>30</ele>
						<time>2025-04-28T17:53:24Z</time>
					</trkpt>
					<trkpt lat="43.491980" lon="4.981640">
						<ele>30</ele>
						<time>2025-04-28T17:53:26Z</time>
					</trkpt>
					<trkpt lat="43.491940" lon="4.981830">
						<ele>30</ele>
						<time>2025-04-28T17:53:29Z</time>
					</trkpt>
					<trkpt lat="43.491980" lon="4.981950">
						<ele>30</ele>
						<time>2025-04-28T17:53:32Z</time>
					</trkpt>
					<trkpt lat="43.492010" lon="4.982230">
						<ele>30</ele>
						<time>2025-04-28T17:53:37Z</time>
					</trkpt>
					<trkpt lat="43.492000" lon="4.982530">
						<ele>30</ele>
						<time>2025-04-28T17:53:42Z</time>
					</trkpt>
					<trkpt lat="43.491930" lon="4.982820">
						<ele>31</ele>
						<time>2025-04-28T17:53:47Z</time>
					</trkpt>
					<trkpt lat="43.491830" lon="4.983150">
						<ele>32</ele>
						<time>2025-04-28T17:53:53Z</time>
					</trkpt>
					<trkpt lat="43.491750" lon="4.983290">
						<ele>32</ele>
						<time>2025-04-28T17:53:56Z</time>
					</trkpt>
					<trkpt lat="43.491550" lon="4.983670">
						<ele>32</ele>
						<time>2025-04-28T17:54:04Z</time>
					</trkpt>
					<trkpt lat="43.491390" lon="4.983960">
						<ele>32</ele>
						<time>2025-04-28T17:54:10Z</time>
					</trkpt>
					<trkpt lat="43.491170" lon="4.984480">
						<ele>32</ele>
						<time>2025-04-28T17:54:20Z</time>
					</trkpt>
					<trkpt lat="43.490990" lon="4.984650">
						<ele>32</ele>
						<time>2025-04-28T17:54:25Z</time>
					</trkpt>
					<trkpt lat="43.490610" lon="4.985020">
						<ele>32</ele>
						<time>2025-04-28T17:54:36Z</time>
					</trkpt>
					<trkpt lat="43.490550" lon="4.985070">
						<ele>32</ele>
						<time>2025-04-28T17:54:38Z</time>
					</trkpt>
					<trkpt lat="43.490130" lon="4.985750">
						<ele>34</ele>
						<time>2025-04-28T17:54:53Z</time>
					</trkpt>
					<trkpt lat="43.490130" lon="4.985860">
						<ele>34</ele>
						<time>2025-04-28T17:54:55Z</time>
					</trkpt>
					<trkpt lat="43.490070" lon="4.985930">
						<ele>34</ele>
						<time>2025-04-28T17:54:57Z</time>
					</trkpt>
					<trkpt lat="43.490020" lon="4.985990">
						<ele>35</ele>
						<time>2025-04-28T17:54:58Z</time>
					</trkpt>
					<trkpt lat="43.489940" lon="4.986050">
						<ele>35</ele>
						<time>2025-04-28T17:55:00Z</time>
					</trkpt>
					<trkpt lat="43.489780" lon="4.986230">
						<ele>36</ele>
						<time>2025-04-28T17:55:05Z</time>
					</trkpt>
					<trkpt lat="43.489780" lon="4.986310">
						<ele>36</ele>
						<time>2025-04-28T17:55:06Z</time>
					</trkpt>
					<trkpt lat="43.489690" lon="4.986320">
						<ele>36</ele>
						<time>2025-04-28T17:55:09Z</time>
					</trkpt>
					<trkpt lat="43.489700" lon="4.986380">
						<ele>36</ele>
						<time>2025-04-28T17:55:10Z</time>
					</trkpt>
					<trkpt lat="43.489850" lon="4.986510">
						<ele>37</ele>
						<time>2025-04-28T17:55:14Z</time>
					</trkpt>
					<trkpt lat="43.489890" lon="4.986640">
						<ele>37</ele>
						<time>2025-04-28T17:55:16Z</time>
					</trkpt>
					<trkpt lat="43.489920" lon="4.986750">
						<ele>37</ele>
						<time>2025-04-28T17:55:18Z</time>
					</trkpt>
					<trkpt lat="43.489930" lon="4.986930">
						<ele>37</ele>
						<time>2025-04-28T17:55:21Z</time>
					</trkpt>
					<trkpt lat="43.489880" lon="4.987230">
						<ele>37</ele>
						<time>2025-04-28T17:55:26Z</time>
					</trkpt>
					<trkpt lat="43.489750" lon="4.987430">
						<ele>38</ele>
						<time>2025-04-28T17:55:31Z</time>
					</trkpt>
					<trkpt lat="43.489640" lon="4.987650">
						<ele>38</ele>
						<time>2025-04-28T17:55:36Z</time>
					</trkpt>
					<trkpt lat="43.489520" lon="4.987880">
						<ele>38</ele>
						<time>2025-04-28T17:55:40Z</time>
					</trkpt>
					<trkpt lat="43.489400" lon="4.988120">
						<ele>37</ele>
						<time>2025-04-28T17:55:45Z</time>
					</trkpt>
					<trkpt lat="43.489230" lon="4.988490">
						<ele>37</ele>
						<time>2025-04-28T17:55:53Z</time>
					</trkpt>
					<trkpt lat="43.489110" lon="4.988730">
						<ele>38</ele>
						<time>2025-04-28T17:55:58Z</time>
					</trkpt>
					<trkpt lat="43.488990" lon="4.989020">
						<ele>39</ele>
						<time>2025-04-28T17:56:03Z</time>
					</trkpt>
					<trkpt lat="43.488860" lon="4.989590">
						<ele>40</ele>
						<time>2025-04-28T17:56:13Z</time>
					</trkpt>
					<trkpt lat="43.488700" lon="4.990630">
						<ele>41</ele>
						<time>2025-04-28T17:56:31Z</time>
					</trkpt>
					<trkpt lat="43.488600" lon="4.991430">
						<ele>43</ele>
						<time>2025-04-28T17:56:45Z</time>
					</trkpt>
					<trkpt lat="43.488540" lon="4.991660">
						<ele>43</ele>
						<time>2025-04-28T17:56:49Z</time>
					</trkpt>
					<trkpt lat="43.488390" lon="4.991980">
						<ele>44</ele>
						<time>2025-04-28T17:56:56Z</time>
					</trkpt>
					<trkpt lat="43.488510" lon="4.992150">
						<ele>44</ele>
						<time>2025-04-28T17:57:00Z</time>
					</trkpt>
					<trkpt lat="43.488600" lon="4.992140">
						<ele>44</ele>
						<time>2025-04-28T17:57:02Z</time>
					</trkpt>
					<trkpt lat="43.488600" lon="4.992070">
						<ele>44</ele>
						<time>2025-04-28T17:57:03Z</time>
					</trkpt>
					<trkpt lat="43.488740" lon="4.992120">
						<ele>44</ele>
						<time>2025-04-28T17:57:06Z</time>
					</trkpt>
					<trkpt lat="43.488810" lon="4.992310">
						<ele>44</ele>
						<time>2025-04-28T17:57:10Z</time>
					</trkpt>
					<trkpt lat="43.489010" lon="4.992730">
						<ele>45</ele>
						<time>2025-04-28T17:57:19Z</time>
					</trkpt>
					<trkpt lat="43.489150" lon="4.992930">
						<ele>47</ele>
						<time>2025-04-28T17:57:23Z</time>
					</trkpt>
					<trkpt lat="43.489370" lon="4.993060">
						<ele>47</ele>
						<time>2025-04-28T17:57:29Z</time>
					</trkpt>
					<trkpt lat="43.490280" lon="4.992820">
						<ele>47</ele>
						<time>2025-04-28T17:57:50Z</time>
					</trkpt>
					<trkpt lat="43.490890" lon="4.992670">
						<ele>48</ele>
						<time>2025-04-28T17:58:05Z</time>
					</trkpt>
					<trkpt lat="43.491500" lon="4.992750">
						<ele>49</ele>
						<time>2025-04-28T17:58:19Z</time>
					</trkpt>
					<trkpt lat="43.491570" lon="4.992900">
						<ele>49</ele>
						<time>2025-04-28T17:58:22Z</time>
					</trkpt>
					<trkpt lat="43.491680" lon="4.993070">
						<ele>50</ele>
						<time>2025-04-28T17:58:26Z</time>
					</trkpt>
					<trkpt lat="43.491710" lon="4.993150">
						<ele>50</ele>
						<time>2025-04-28T17:58:28Z</time>
					</trkpt>
					<trkpt lat="43.491720" lon="4.993260">
						<ele>50</ele>
						<time>2025-04-28T17:58:30Z</time>
					</trkpt>
					<trkpt lat="43.491890" lon="4.993210">
						<ele>49</ele>
						<time>2025-04-28T17:58:34Z</time>
					</trkpt>
					<trkpt lat="43.492190" lon="4.993130">
						<ele>47</ele>
						<time>2025-04-28T17:58:41Z</time>
					</trkpt>
					<trkpt lat="43.492540" lon="4.993060">
						<ele>46</ele>
						<time>2025-04-28T17:58:49Z</time>
					</trkpt>
					<trkpt lat="43.492810" lon="4.993030">
						<ele>46</ele>
						<time>2025-04-28T17:58:55Z</time>
					</trkpt>
					<trkpt lat="43.493140" lon="4.992990">
						<ele>45</ele>
						<time>2025-04-28T17:59:03Z</time>
					</trkpt>
					<trkpt lat="43.493560" lon="4.992920">
						<ele>44</ele>
						<time>2025-04-28T17:59:13Z</time>
					</trkpt>
					<trkpt lat="43.493900" lon="4.992860">
						<ele>43</ele>
						<time>2025-04-28T17:59:21Z</time>
					</trkpt>
					<trkpt lat="43.494370" lon="4.992800">
						<ele>42</ele>
						<time>2025-04-28T17:59:32Z</time>
					</trkpt>
					<trkpt lat="43.494800" lon="4.992720">
						<ele>40</ele>
						<time>2025-04-28T17:59:42Z</time>
					</trkpt>
					<trkpt lat="43.495270" lon="4.992690">
						<ele>40</ele>
						<time>2025-04-28T17:59:53Z</time>
					</trkpt>
					<trkpt lat="43.495360" lon="4.992660">
						<ele>40</ele>
						<time>2025-04-28T17:59:55Z</time>
					</trkpt>
					<trkpt lat="43.495650" lon="4.992430">
						<ele>39</ele>
						<time>2025-04-28T18:00:03Z</time>
					</trkpt>
					<trkpt lat="43.496050" lon="4.992330">
						<ele>39</ele>
						<time>2025-04-28T18:00:13Z</time>
					</trkpt>
					<trkpt lat="43.496190" lon="4.992370">
						<ele>39</ele>
						<time>2025-04-28T18:00:16Z</time>
					</trkpt>
					<trkpt lat="43.496590" lon="4.992260">
						<ele>38</ele>
						<time>2025-04-28T18:00:25Z</time>
					</trkpt>
					<trkpt lat="43.496930" lon="4.992140">
						<ele>38</ele>
						<time>2025-04-28T18:00:34Z</time>
					</trkpt>
					<trkpt lat="43.497420" lon="4.991970">
						<ele>37</ele>
						<time>2025-04-28T18:00:45Z</time>
					</trkpt>
					<trkpt lat="43.497520" lon="4.991980">
						<ele>37</ele>
						<time>2025-04-28T18:00:48Z</time>
					</trkpt>
					<trkpt lat="43.497640" lon="4.991980">
						<ele>37</ele>
						<time>2025-04-28T18:00:51Z</time>
					</trkpt>
					<trkpt lat="43.497840" lon="4.991930">
						<ele>36</ele>
						<time>2025-04-28T18:00:55Z</time>
					</trkpt>
					<trkpt lat="43.498000" lon="4.991890">
						<ele>36</ele>
						<time>2025-04-28T18:00:59Z</time>
					</trkpt>
					<trkpt lat="43.498280" lon="4.991880">
						<ele>36</ele>
						<time>2025-04-28T18:01:06Z</time>
					</trkpt>
					<trkpt lat="43.498460" lon="4.991920">
						<ele>36</ele>
						<time>2025-04-28T18:01:10Z</time>
					</trkpt>
					<trkpt lat="43.498530" lon="4.992000">
						<ele>36</ele>
						<time>2025-04-28T18:01:12Z</time>
					</trkpt>
					<trkpt lat="43.498670" lon="4.991920">
						<ele>35</ele>
						<time>2025-04-28T18:01:16Z</time>
					</trkpt>
					<trkpt lat="43.498780" lon="4.991890">
						<ele>35</ele>
						<time>2025-04-28T18:01:18Z</time>
					</trkpt>
					<trkpt lat="43.498980" lon="4.991940">
						<ele>35</ele>
						<time>2025-04-28T18:01:23Z</time>
					</trkpt>
					<trkpt lat="43.499060" lon="4.991970">
						<ele>35</ele>
						<time>2025-04-28T18:01:25Z</time>
					</trkpt>
					<trkpt lat="43.499210" lon="4.992300">
						<ele>35</ele>
						<time>2025-04-28T18:01:31Z</time>
					</trkpt>
					<trkpt lat="43.499410" lon="4.992350">
						<ele>35</ele>
						<time>2025-04-28T18:01:36Z</time>
					</trkpt>
					<trkpt lat="43.499590" lon="4.992410">
						<ele>34</ele>
						<time>2025-04-28T18:01:41Z</time>
					</trkpt>
					<trkpt lat="43.499870" lon="4.992570">
						<ele>33</ele>
						<time>2025-04-28T18:01:48Z</time>
					</trkpt>
					<trkpt lat="43.499990" lon="4.992610">
						<ele>32</ele>
						<time>2025-04-28T18:01:51Z</time>
					</trkpt>
					<trkpt lat="43.499970" lon="4.993110">
						<ele>34</ele>
						<time>2025-04-28T18:01:59Z</time>
					</trkpt>
					<trkpt lat="43.499980" lon="4.993530">
						<ele>34</ele>
						<time>2025-04-28T18:02:06Z</time>
					</trkpt>
					<trkpt lat="43.500000" lon="4.993660">
						<ele>34</ele>
						<time>2025-04-28T18:02:08Z</time>
					</trkpt>
					<trkpt lat="43.500070" lon="4.993720">
						<ele>34</ele>
						<time>2025-04-28T18:02:10Z</time>
					</trkpt>
					<trkpt lat="43.500320" lon="4.993730">
						<ele>33</ele>
						<time>2025-04-28T18:02:16Z</time>
					</trkpt>
					<trkpt lat="43.500500" lon="4.993740">
						<ele>32</ele>
						<time>2025-04-28T18:02:20Z</time>
					</trkpt>
					<trkpt lat="43.500560" lon="4.993540">
						<ele>32</ele>
						<time>2025-04-28T18:02:24Z</time>
					</trkpt>
					<trkpt lat="43.501120" lon="4.993560">
						<ele>31</ele>
						<time>2025-04-28T18:02:37Z</time>
					</trkpt>
					<trkpt lat="43.501120" lon="4.993960">
						<ele>32</ele>
						<time>2025-04-28T18:02:44Z</time>
					</trkpt>
					<trkpt lat="43.501110" lon="4.994800">
						<ele>33</ele>
						<time>2025-04-28T18:02:58Z</time>
					</trkpt>
					</trkseg>
				</trk>
			</gpx>